| time (UTC) | temp F | wind direction | speed knots | gust knots | rain 1hr in | rain 24hr in | rain mn in | humidity % | barometer mb |
| 20260906150603 | 90 | 285 | 0.0 | 0.9 | 0.00 | 0.00 | 0.00 | 59 | 1012.8 |
| 20260906145403 | 89 | 313 | 0.0 | 1.7 | 0.00 | 0.00 | 0.00 | 61 | 1012.8 |
| 20260906145306 | 88 | 318 | 0.0 | 1.7 | 0.00 | 0.00 | 0.00 | 61 | 1012.8 |
| 20260906145204 | 88 | 309 | 0.0 | 1.7 | 0.00 | 0.00 | 0.00 | 61 | 1012.9 |
| 20260906145103 | 88 | 299 | 0.0 | 1.7 | 0.00 | 0.00 | 0.00 | 61 | 1012.9 |
| 20260906145004 | 88 | 280 | 0.0 | 1.7 | 0.00 | 0.00 | 0.00 | 62 | 1012.9 |
| 20260906144903 | 88 | 282 | 0.0 | 1.7 | 0.00 | 0.00 | 0.00 | 63 | 1012.8 |
| 20260906144803 | 88 | 282 | 0.0 | 1.7 | 0.00 | 0.00 | 0.00 | 66 | 1012.9 |
| 20260906144703 | 88 | 282 | 0.0 | 1.7 | 0.00 | 0.00 | 0.00 | 65 | 1012.8 |
| 20260906144603 | 88 | 282 | 0.0 | 1.7 | 0.00 | 0.00 | 0.00 | 64 | 1012.9 |
| 20260906144504 | 88 | 282 | 0.0 | 1.7 | 0.00 | 0.00 | 0.00 | 64 | 1012.9 |
| 20260906144403 | 87 | 282 | 0.0 | 1.7 | 0.00 | 0.00 | 0.00 | 65 | 1012.9 |
| 20260906144304 | 87 | 282 | 0.0 | 1.7 | 0.00 | 0.00 | 0.00 | 65 | 1012.9 |
| 20260906144204 | 87 | 286 | 0.0 | 1.7 | 0.00 | 0.00 | 0.00 | 64 | 1012.9 |
| 20260906144103 | 87 | 292 | 0.0 | 1.7 | 0.00 | 0.00 | 0.00 | 65 | 1012.9 |
| 20260906144004 | 87 | 291 | 0.0 | 1.7 | 0.00 | 0.00 | 0.00 | 64 | 1012.9 |
| 20260906143903 | 87 | 0 | 0.0 | 0.0 | 0.00 | 0.00 | 0.00 | 63 | 1012.9 |
| 20260906143803 | 87 | 0 | 0.0 | 0.0 | 0.00 | 0.00 | 0.00 | 64 | 1012.9 |
| 20260906143703 | 87 | 0 | 0.0 | 0.0 | 0.00 | 0.00 | 0.00 | 69 | 1013.0 |
| 20260906143603 | 87 | 0 | 0.0 | 0.0 | 0.00 | 0.00 | 0.00 | 69 | 1013.0 |
| 20260906143504 | 87 | 0 | 0.0 | 0.0 | 0.00 | 0.00 | 0.00 | 69 | 1013.0 |
| 20260906143403 | 87 | 267 | 0.0 | 0.9 | 0.00 | 0.00 | 0.00 | 69 | 1012.9 |
| 20260906143303 | 87 | 263 | 0.0 | 1.7 | 0.00 | 0.00 | 0.00 | 69 | 1012.9 |
| 20260906143204 | 87 | 266 | 0.0 | 1.7 | 0.00 | 0.00 | 0.00 | 69 | 1013.0 |
| 20260906143103 | 87 | 266 | 0.0 | 1.7 | 0.00 | 0.00 | 0.00 | 69 | 1012.9 |
| 20260906143004 | 87 | 266 | 0.0 | 1.7 | 0.00 | 0.00 | 0.00 | 68 | 1013.0 |
| 20260906142904 | 87 | 266 | 0.0 | 1.7 | 0.00 | 0.00 | 0.00 | 68 | 1012.9 |
| 20260906142803 | 87 | 270 | 0.0 | 1.7 | 0.00 | 0.00 | 0.00 | 69 | 1013.0 |
| 20260906142703 | 87 | 275 | 0.0 | 1.7 | 0.00 | 0.00 | 0.00 | 70 | 1013.0 |
| 20260906142603 | 86 | 275 | 0.0 | 1.7 | 0.00 | 0.00 | 0.00 | 71 | 1013.0 |
| 20260906142503 | 86 | 275 | 0.0 | 1.7 | 0.00 | 0.00 | 0.00 | 68 | 1013.0 |
| 20260906142403 | 86 | 276 | 0.0 | 1.7 | 0.00 | 0.00 | 0.00 | 66 | 1012.9 |
| 20260906142306 | 86 | 301 | 0.0 | 0.9 | 0.00 | 0.00 | 0.00 | 68 | 1013.0 |
| 20260906141503 | 85 | 301 | 0.0 | 1.7 | 0.00 | 0.00 | 0.00 | 69 | 1013.0 |
| 20260906141404 | 85 | 301 | 0.0 | 1.7 | 0.00 | 0.00 | 0.00 | 69 | 1013.0 |
| 20260906141203 | 84 | 300 | 0.0 | 1.7 | 0.00 | 0.00 | 0.00 | 72 | 1013.0 |
| 20260906141003 | 84 | 300 | 0.0 | 1.7 | 0.00 | 0.00 | 0.00 | 71 | 1013.0 |
| 20260906140904 | 84 | 306 | 0.0 | 1.7 | 0.00 | 0.00 | 0.00 | 71 | 1013.0 |
| 20260906140703 | 83 | 308 | 0.0 | 1.7 | 0.00 | 0.00 | 0.00 | 75 | 1012.9 |
| 20260906140504 | 83 | 317 | 0.0 | 0.9 | 0.00 | 0.00 | 0.00 | 71 | 1013.0 |
| 20260906140303 | 83 | 317 | 0.0 | 0.9 | 0.00 | 0.00 | 0.00 | 74 | 1013.0 |
| 20260906135903 | 82 | 0 | 0.0 | 0.0 | 0.00 | 0.00 | 0.00 | 79 | 1013.0 |
| 20260906135703 | 81 | 0 | 0.0 | 0.0 | 0.00 | 0.00 | 0.00 | 79 | 1013.0 |
| 20260906135203 | 81 | 0 | 0.0 | 0.0 | 0.00 | 0.00 | 0.00 | 81 | 1012.9 |
| 20260906134804 | 80 | 0 | 0.0 | 0.0 | 0.00 | 0.00 | 0.00 | 82 | 1012.9 |
| 20260906134603 | 80 | 0 | 0.0 | 0.0 | 0.00 | 0.00 | 0.00 | 82 | 1013.0 |
| 20260906134504 | 80 | 0 | 0.0 | 0.0 | 0.00 | 0.00 | 0.00 | 82 | 1013.0 |
| 20260906134403 | 80 | 0 | 0.0 | 0.0 | 0.00 | 0.00 | 0.00 | 82 | 1012.9 |
| 20260906134303 | 80 | 0 | 0.0 | 0.0 | 0.00 | 0.00 | 0.00 | 82 | 1012.9 |
| 20260906134203 | 80 | 0 | 0.0 | 0.0 | 0.00 | 0.00 | 0.00 | 83 | 1012.9 |
| 20260906134104 | 80 | 0 | 0.0 | 0.0 | 0.00 | 0.00 | 0.00 | 83 | 1012.9 |
| 20260906134003 | 80 | 0 | 0.0 | 0.0 | 0.00 | 0.00 | 0.00 | 83 | 1012.9 |
| 20260906133904 | 80 | 0 | 0.0 | 0.0 | 0.00 | 0.00 | 0.00 | 82 | 1012.9 |
| 20260906133803 | 80 | 0 | 0.0 | 0.0 | 0.00 | 0.00 | 0.00 | 83 | 1012.8 |
| 20260906133703 | 80 | 0 | 0.0 | 0.0 | 0.00 | 0.00 | 0.00 | 83 | 1012.9 |
| 20260906133603 | 80 | 0 | 0.0 | 0.0 | 0.00 | 0.00 | 0.00 | 83 | 1012.9 |
| 20260906133504 | 80 | 0 | 0.0 | 0.0 | 0.00 | 0.00 | 0.00 | 83 | 1012.9 |
| 20260906133403 | 80 | 0 | 0.0 | 0.0 | 0.00 | 0.00 | 0.00 | 83 | 1012.9 |
| 20260906133303 | 79 | 0 | 0.0 | 0.0 | 0.00 | 0.00 | 0.00 | 83 | 1012.9 |
| 20260906133203 | 79 | 0 | 0.0 | 0.0 | 0.00 | 0.00 | 0.00 | 83 | 1012.9 |
| 20260906133103 | 79 | 0 | 0.0 | 0.0 | 0.00 | 0.00 | 0.00 | 83 | 1013.0 |
| 20260906133004 | 79 | 0 | 0.0 | 0.0 | 0.00 | 0.00 | 0.00 | 83 | 1013.0 |
| 20260906132903 | 79 | 0 | 0.0 | 0.0 | 0.00 | 0.00 | 0.00 | 83 | 1013.0 |
| 20260906132803 | 79 | 0 | 0.0 | 0.0 | 0.00 | 0.00 | 0.00 | 83 | 1013.0 |
| 20260906132703 | 79 | 0 | 0.0 | 0.0 | 0.00 | 0.00 | 0.00 | 82 | 1013.0 |
| 20260906132604 | 79 | 0 | 0.0 | 0.0 | 0.00 | 0.00 | 0.00 | 82 | 1013.0 |
| 20260906132504 | 79 | 0 | 0.0 | 0.0 | 0.00 | 0.00 | 0.00 | 82 | 1013.0 |
| 20260906132403 | 79 | 0 | 0.0 | 0.0 | 0.00 | 0.00 | 0.00 | 83 | 1013.0 |
| 20260906132306 | 79 | 0 | 0.0 | 0.0 | 0.00 | 0.00 | 0.00 | 82 | 1013.0 |
| 20260906132203 | 79 | 0 | 0.0 | 0.0 | 0.00 | 0.00 | 0.00 | 83 | 1013.0 |
| 20260906132103 | 79 | 0 | 0.0 | 0.0 | 0.00 | 0.00 | 0.00 | 83 | 1013.0 |
| 20260906132004 | 79 | 0 | 0.0 | 0.0 | 0.00 | 0.00 | 0.00 | 83 | 1013.0 |
| 20260906131903 | 79 | 0 | 0.0 | 0.0 | 0.00 | 0.00 | 0.00 | 83 | 1013.0 |
| 20260906131804 | 79 | 0 | 0.0 | 0.0 | 0.00 | 0.00 | 0.00 | 83 | 1013.0 |
| 20260906131603 | 78 | 0 | 0.0 | 0.0 | 0.00 | 0.00 | 0.00 | 83 | 1013.1 |
| 20260906131503 | 78 | 0 | 0.0 | 0.0 | 0.00 | 0.00 | 0.00 | 83 | 1013.1 |
| 20260906131303 | 78 | 0 | 0.0 | 0.0 | 0.00 | 0.00 | 0.00 | 84 | 1013.1 |
| 20260906130303 | 78 | 0 | 0.0 | 0.0 | 0.00 | 0.00 | 0.00 | 84 | 1012.9 |
| 20260906123103 | 76 | 0 | 0.0 | 0.0 | 0.00 | 0.00 | 0.00 | 85 | 1012.6 |
| 20260906123003 | 76 | 0 | 0.0 | 0.0 | 0.00 | 0.00 | 0.00 | 85 | 1012.7 |
| 20260906122904 | 76 | 0 | 0.0 | 0.0 | 0.00 | 0.00 | 0.00 | 85 | 1012.6 |
| 20260906122803 | 76 | 0 | 0.0 | 0.0 | 0.00 | 0.00 | 0.00 | 85 | 1012.6 |
| 20260906122703 | 76 | 0 | 0.0 | 0.0 | 0.00 | 0.00 | 0.00 | 85 | 1012.6 |
| 20260906122603 | 76 | 0 | 0.0 | 0.0 | 0.00 | 0.00 | 0.00 | 85 | 1012.6 |
| 20260906122504 | 76 | 0 | 0.0 | 0.0 | 0.00 | 0.00 | 0.00 | 85 | 1012.6 |
| 20260906122403 | 76 | 0 | 0.0 | 0.0 | 0.00 | 0.00 | 0.00 | 85 | 1012.6 |
| 20260906122306 | 76 | 0 | 0.0 | 0.0 | 0.00 | 0.00 | 0.00 | 85 | 1012.6 |
| 20260906122203 | 76 | 0 | 0.0 | 0.0 | 0.00 | 0.00 | 0.00 | 85 | 1012.5 |
| 20260906122103 | 76 | 0 | 0.0 | 0.0 | 0.00 | 0.00 | 0.00 | 85 | 1012.5 |
| 20260906122004 | 76 | 0 | 0.0 | 0.0 | 0.00 | 0.00 | 0.00 | 85 | 1012.5 |
| 20260906121903 | 76 | 0 | 0.0 | 0.0 | 0.00 | 0.00 | 0.00 | 85 | 1012.5 |
| 20260906121803 | 76 | 0 | 0.0 | 0.0 | 0.00 | 0.00 | 0.00 | 85 | 1012.5 |
| 20260906121704 | 76 | 0 | 0.0 | 0.0 | 0.00 | 0.00 | 0.00 | 85 | 1012.4 |
| 20260906121603 | 76 | 0 | 0.0 | 0.0 | 0.00 | 0.00 | 0.00 | 86 | 1012.4 |
| 20260906121503 | 76 | 0 | 0.0 | 0.0 | 0.00 | 0.00 | 0.00 | 85 | 1012.4 |
| 20260906121404 | 76 | 0 | 0.0 | 0.0 | 0.00 | 0.00 | 0.00 | 85 | 1012.4 |
| 20260906121303 | 75 | 0 | 0.0 | 0.0 | 0.00 | 0.00 | 0.00 | 85 | 1012.4 |
| 20260906121203 | 75 | 0 | 0.0 | 0.0 | 0.00 | 0.00 | 0.00 | 85 | 1012.4 |
| 20260906121103 | 75 | 0 | 0.0 | 0.0 | 0.00 | 0.00 | 0.00 | 85 | 1012.4 |
| 20260906120903 | 75 | 0 | 0.0 | 0.0 | 0.00 | 0.00 | 0.00 | 85 | 1012.2 |
| 20260906120803 | 75 | 0 | 0.0 | 0.0 | 0.00 | 0.00 | 0.00 | 85 | 1012.3 |
| 20260906120703 | 75 | 0 | 0.0 | 0.0 | 0.00 | 0.00 | 0.00 | 85 | 1012.3 |
| 20260906120603 | 75 | 0 | 0.0 | 0.0 | 0.00 | 0.00 | 0.00 | 85 | 1012.3 |
| 20260906120504 | 75 | 0 | 0.0 | 0.0 | 0.00 | 0.00 | 0.00 | 86 | 1012.2 |
| 20260906120403 | 75 | 0 | 0.0 | 0.0 | 0.00 | 0.00 | 0.00 | 86 | 1012.2 |
| 20260906120303 | 75 | 0 | 0.0 | 0.0 | 0.00 | 0.00 | 0.00 | 86 | 1012.2 |
| 20260906120204 | 75 | 0 | 0.0 | 0.0 | 0.00 | 0.00 | 0.00 | 86 | 1012.2 |
| 20260906120104 | 75 | 0 | 0.0 | 0.0 | 0.00 | 0.00 | 0.00 | 86 | 1012.2 |
| 20260906120004 | 75 | 0 | 0.0 | 0.0 | 0.00 | 0.00 | 0.00 | 85 | 1012.2 |
| 20260906115904 | 75 | 0 | 0.0 | 0.0 | 0.00 | 0.00 | 0.00 | 86 | 1012.1 |
| 20260906115804 | 75 | 0 | 0.0 | 0.0 | 0.00 | 0.00 | 0.00 | 85 | 1012.2 |
| 20260906115203 | 75 | 0 | 0.0 | 0.0 | 0.00 | 0.00 | 0.00 | 85 | 1012.0 |
| 20260906114703 | 75 | 0 | 0.0 | 0.0 | 0.00 | 0.00 | 0.00 | 85 | 1012.0 |
| 20260906114504 | 75 | 0 | 0.0 | 0.0 | 0.00 | 0.00 | 0.00 | 85 | 1012.0 |
| 20260906113603 | 75 | 0 | 0.0 | 0.0 | 0.00 | 0.00 | 0.00 | 85 | 1011.8 |
| 20260906112504 | 76 | 0 | 0.0 | 0.0 | 0.00 | 0.00 | 0.00 | 85 | 1011.8 |
| 20260906112404 | 76 | 0 | 0.0 | 0.0 | 0.00 | 0.00 | 0.00 | 85 | 1011.7 |
| 20260906112203 | 76 | 0 | 0.0 | 0.0 | 0.00 | 0.00 | 0.00 | 85 | 1011.7 |
| 20260906112004 | 76 | 0 | 0.0 | 0.0 | 0.00 | 0.00 | 0.00 | 85 | 1011.7 |
| 20260906111903 | 76 | 0 | 0.0 | 0.0 | 0.00 | 0.00 | 0.00 | 85 | 1011.7 |
| 20260906111703 | 76 | 0 | 0.0 | 0.0 | 0.00 | 0.00 | 0.00 | 85 | 1011.7 |
| 20260906111604 | 76 | 0 | 0.0 | 0.0 | 0.00 | 0.00 | 0.00 | 85 | 1011.7 |
| 20260906111504 | 76 | 0 | 0.0 | 0.0 | 0.00 | 0.00 | 0.00 | 85 | 1011.7 |
| 20260906111403 | 76 | 0 | 0.0 | 0.0 | 0.00 | 0.00 | 0.00 | 85 | 1011.7 |
| 20260906111304 | 76 | 0 | 0.0 | 0.0 | 0.00 | 0.00 | 0.00 | 85 | 1011.7 |
| 20260906111204 | 76 | 0 | 0.0 | 0.0 | 0.00 | 0.00 | 0.00 | 85 | 1011.7 |
| 20260906111103 | 76 | 0 | 0.0 | 0.0 | 0.00 | 0.00 | 0.00 | 84 | 1011.7 |
| 20260906111004 | 76 | 0 | 0.0 | 0.0 | 0.00 | 0.00 | 0.00 | 84 | 1011.7 |
| 20260906110903 | 76 | 0 | 0.0 | 0.0 | 0.00 | 0.00 | 0.00 | 84 | 1011.7 |
| 20260906110803 | 76 | 0 | 0.0 | 0.0 | 0.00 | 0.00 | 0.00 | 84 | 1011.7 |
| 20260906110704 | 76 | 0 | 0.0 | 0.0 | 0.00 | 0.00 | 0.00 | 84 | 1011.7 |
| 20260906110603 | 76 | 0 | 0.0 | 0.0 | 0.00 | 0.00 | 0.00 | 84 | 1011.7 |
| 20260906110503 | 76 | 0 | 0.0 | 0.0 | 0.00 | 0.00 | 0.00 | 84 | 1011.6 |
| 20260906110404 | 76 | 0 | 0.0 | 0.0 | 0.00 | 0.00 | 0.00 | 84 | 1011.6 |
| 20260906110303 | 76 | 0 | 0.0 | 0.0 | 0.00 | 0.00 | 0.00 | 84 | 1011.6 |
| 20260906110203 | 76 | 0 | 0.0 | 0.0 | 0.00 | 0.00 | 0.00 | 84 | 1011.5 |
| 20260906110103 | 76 | 0 | 0.0 | 0.0 | 0.00 | 0.00 | 0.00 | 84 | 1011.6 |
| 20260906110004 | 76 | 0 | 0.0 | 0.0 | 0.00 | 0.00 | 0.00 | 84 | 1011.6 |
| 20260906105903 | 76 | 0 | 0.0 | 0.0 | 0.00 | 0.00 | 0.00 | 84 | 1011.5 |
| 20260906105803 | 76 | 0 | 0.0 | 0.0 | 0.00 | 0.00 | 0.00 | 84 | 1011.5 |
| 20260906105703 | 76 | 0 | 0.0 | 0.0 | 0.00 | 0.00 | 0.00 | 84 | 1011.6 |
| 20260906105604 | 76 | 0 | 0.0 | 0.0 | 0.00 | 0.00 | 0.00 | 84 | 1011.6 |
| 20260906105504 | 76 | 0 | 0.0 | 0.0 | 0.00 | 0.00 | 0.00 | 84 | 1011.6 |
| 20260906105403 | 76 | 314 | 0.0 | 0.9 | 0.00 | 0.00 | 0.00 | 84 | 1011.6 |
| 20260906105306 | 76 | 314 | 0.0 | 0.9 | 0.00 | 0.00 | 0.00 | 84 | 1011.6 |
| 20260906105203 | 76 | 314 | 0.0 | 0.9 | 0.00 | 0.00 | 0.00 | 84 | 1011.6 |
| 20260906105103 | 76 | 314 | 0.0 | 0.9 | 0.00 | 0.00 | 0.00 | 84 | 1011.6 |
| 20260906105004 | 76 | 314 | 0.0 | 0.9 | 0.00 | 0.00 | 0.00 | 84 | 1011.6 |
| 20260906104903 | 76 | 314 | 0.0 | 0.9 | 0.00 | 0.00 | 0.00 | 84 | 1011.6 |
| 20260906104803 | 76 | 314 | 0.0 | 0.9 | 0.00 | 0.00 | 0.00 | 84 | 1011.6 |
| 20260906104703 | 76 | 314 | 0.0 | 0.9 | 0.00 | 0.00 | 0.00 | 84 | 1011.6 |
| 20260906104603 | 76 | 314 | 0.0 | 0.9 | 0.00 | 0.00 | 0.00 | 84 | 1011.6 |
| 20260906104504 | 76 | 314 | 0.0 | 0.9 | 0.00 | 0.00 | 0.00 | 84 | 1011.6 |
| 20260906104304 | 76 | 0 | 0.0 | 0.0 | 0.00 | 0.00 | 0.00 | 84 | 1011.6 |
| 20260906104204 | 76 | 0 | 0.0 | 0.0 | 0.00 | 0.00 | 0.00 | 84 | 1011.6 |
| 20260906104103 | 76 | 0 | 0.0 | 0.0 | 0.00 | 0.00 | 0.00 | 84 | 1011.6 |
| 20260906104004 | 76 | 0 | 0.0 | 0.0 | 0.00 | 0.00 | 0.00 | 84 | 1011.6 |
| 20260906103904 | 76 | 0 | 0.0 | 0.0 | 0.00 | 0.00 | 0.00 | 84 | 1011.6 |
| 20260906103803 | 76 | 0 | 0.0 | 0.0 | 0.00 | 0.00 | 0.00 | 84 | 1011.6 |
| 20260906103703 | 76 | 0 | 0.0 | 0.0 | 0.00 | 0.00 | 0.00 | 84 | 1011.6 |
| 20260906103603 | 76 | 0 | 0.0 | 0.0 | 0.00 | 0.00 | 0.00 | 84 | 1011.6 |
| 20260906103504 | 76 | 0 | 0.0 | 0.0 | 0.00 | 0.00 | 0.00 | 83 | 1011.6 |
| 20260906103403 | 76 | 0 | 0.0 | 0.0 | 0.00 | 0.00 | 0.00 | 83 | 1011.6 |
| 20260906103203 | 76 | 0 | 0.0 | 0.0 | 0.00 | 0.00 | 0.00 | 83 | 1011.6 |
| 20260906103104 | 76 | 0 | 0.0 | 0.0 | 0.00 | 0.00 | 0.00 | 83 | 1011.6 |
| 20260906103004 | 77 | 0 | 0.0 | 0.0 | 0.00 | 0.00 | 0.00 | 83 | 1011.6 |
| 20260906102903 | 77 | 0 | 0.0 | 0.0 | 0.00 | 0.00 | 0.00 | 83 | 1011.6 |
| 20260906102804 | 76 | 0 | 0.0 | 0.0 | 0.00 | 0.00 | 0.00 | 83 | 1011.6 |
| 20260906102703 | 77 | 0 | 0.0 | 0.0 | 0.00 | 0.00 | 0.00 | 83 | 1011.5 |
| 20260906102603 | 77 | 0 | 0.0 | 0.0 | 0.00 | 0.00 | 0.00 | 83 | 1011.5 |
| 20260906102504 | 77 | 0 | 0.0 | 0.0 | 0.00 | 0.00 | 0.00 | 83 | 1011.5 |
| 20260906102403 | 77 | 0 | 0.0 | 0.0 | 0.00 | 0.00 | 0.00 | 83 | 1011.6 |
| 20260906102306 | 77 | 0 | 0.0 | 0.0 | 0.00 | 0.00 | 0.00 | 83 | 1011.6 |
| 20260906102203 | 77 | 0 | 0.0 | 0.0 | 0.00 | 0.00 | 0.00 | 83 | 1011.5 |
| 20260906102103 | 77 | 0 | 0.0 | 0.0 | 0.00 | 0.00 | 0.00 | 83 | 1011.6 |
| 20260906102004 | 77 | 0 | 0.0 | 0.0 | 0.00 | 0.00 | 0.00 | 83 | 1011.5 |
| 20260906101903 | 77 | 0 | 0.0 | 0.0 | 0.00 | 0.00 | 0.00 | 83 | 1011.6 |
| 20260906101803 | 77 | 0 | 0.0 | 0.0 | 0.00 | 0.00 | 0.00 | 83 | 1011.5 |
| 20260906101704 | 77 | 0 | 0.0 | 0.0 | 0.00 | 0.00 | 0.00 | 83 | 1011.5 |
| 20260906101604 | 77 | 0 | 0.0 | 0.0 | 0.00 | 0.00 | 0.00 | 83 | 1011.5 |
| 20260906101503 | 77 | 0 | 0.0 | 0.0 | 0.00 | 0.00 | 0.00 | 83 | 1011.5 |
| 20260906101404 | 77 | 0 | 0.0 | 0.0 | 0.00 | 0.00 | 0.00 | 83 | 1011.5 |
| 20260906101303 | 77 | 0 | 0.0 | 0.0 | 0.00 | 0.00 | 0.00 | 83 | 1011.5 |
| 20260906101203 | 77 | 0 | 0.0 | 0.0 | 0.00 | 0.00 | 0.00 | 83 | 1011.5 |
| 20260906101103 | 77 | 0 | 0.0 | 0.0 | 0.00 | 0.00 | 0.00 | 83 | 1011.5 |
| 20260906100803 | 77 | 0 | 0.0 | 0.0 | 0.00 | 0.00 | 0.00 | 83 | 1011.5 |
| 20260906095204 | 77 | 0 | 0.0 | 0.0 | 0.00 | 0.00 | 0.00 | 82 | 1011.3 |
| 20260906094604 | 77 | 0 | 0.0 | 0.0 | 0.00 | 0.00 | 0.00 | 82 | 1011.4 |
| 20260906094403 | 77 | 0 | 0.0 | 0.0 | 0.00 | 0.00 | 0.00 | 82 | 1011.4 |
| 20260906094303 | 77 | 0 | 0.0 | 0.0 | 0.00 | 0.00 | 0.00 | 82 | 1011.3 |
| 20260906094203 | 77 | 0 | 0.0 | 0.0 | 0.00 | 0.00 | 0.00 | 82 | 1011.3 |
| 20260906094103 | 77 | 0 | 0.0 | 0.0 | 0.00 | 0.00 | 0.00 | 83 | 1011.3 |
| 20260906094004 | 77 | 0 | 0.0 | 0.0 | 0.00 | 0.00 | 0.00 | 82 | 1011.3 |
| 20260906093903 | 77 | 0 | 0.0 | 0.0 | 0.00 | 0.00 | 0.00 | 83 | 1011.3 |
| 20260906093804 | 77 | 0 | 0.0 | 0.0 | 0.00 | 0.00 | 0.00 | 83 | 1011.3 |
| 20260906093704 | 77 | 0 | 0.0 | 0.0 | 0.00 | 0.00 | 0.00 | 83 | 1011.3 |
| 20260906093603 | 77 | 0 | 0.0 | 0.0 | 0.00 | 0.00 | 0.00 | 82 | 1011.2 |
| 20260906093503 | 77 | 0 | 0.0 | 0.0 | 0.00 | 0.00 | 0.00 | 82 | 1011.3 |
| 20260906093404 | 77 | 0 | 0.0 | 0.0 | 0.00 | 0.00 | 0.00 | 82 | 1011.3 |
| 20260906093303 | 77 | 0 | 0.0 | 0.0 | 0.00 | 0.00 | 0.00 | 82 | 1011.2 |
| 20260906093203 | 77 | 0 | 0.0 | 0.0 | 0.00 | 0.00 | 0.00 | 82 | 1011.3 |
| 20260906093103 | 77 | 0 | 0.0 | 0.0 | 0.00 | 0.00 | 0.00 | 82 | 1011.3 |
| 20260906093004 | 77 | 0 | 0.0 | 0.0 | 0.00 | 0.00 | 0.00 | 82 | 1011.2 |
| 20260906092803 | 77 | 0 | 0.0 | 0.0 | 0.00 | 0.00 | 0.00 | 82 | 1011.2 |
| 20260906092704 | 77 | 0 | 0.0 | 0.0 | 0.00 | 0.00 | 0.00 | 82 | 1011.2 |
| 20260906092603 | 77 | 0 | 0.0 | 0.0 | 0.00 | 0.00 | 0.00 | 82 | 1011.2 |
| 20260906092504 | 77 | 0 | 0.0 | 0.0 | 0.00 | 0.00 | 0.00 | 82 | 1011.2 |
| 20260906092403 | 77 | 0 | 0.0 | 0.0 | 0.00 | 0.00 | 0.00 | 83 | 1011.2 |
| 20260906092306 | 77 | 0 | 0.0 | 0.0 | 0.00 | 0.00 | 0.00 | 82 | 1011.2 |
| 20260906092203 | 77 | 0 | 0.0 | 0.0 | 0.00 | 0.00 | 0.00 | 82 | 1011.2 |
| 20260906092104 | 77 | 0 | 0.0 | 0.0 | 0.00 | 0.00 | 0.00 | 82 | 1011.2 |
| 20260906092003 | 77 | 0 | 0.0 | 0.0 | 0.00 | 0.00 | 0.00 | 83 | 1011.2 |
| 20260906091904 | 77 | 0 | 0.0 | 0.0 | 0.00 | 0.00 | 0.00 | 82 | 1011.1 |
| 20260906091803 | 77 | 0 | 0.0 | 0.0 | 0.00 | 0.00 | 0.00 | 83 | 1011.1 |
| 20260906091703 | 77 | 0 | 0.0 | 0.0 | 0.00 | 0.00 | 0.00 | 83 | 1011.1 |
| 20260906091603 | 77 | 0 | 0.0 | 0.0 | 0.00 | 0.00 | 0.00 | 83 | 1011.1 |
| 20260906091504 | 77 | 0 | 0.0 | 0.0 | 0.00 | 0.00 | 0.00 | 83 | 1011.1 |
| 20260906091403 | 77 | 0 | 0.0 | 0.0 | 0.00 | 0.00 | 0.00 | 83 | 1011.2 |
| 20260906091303 | 77 | 0 | 0.0 | 0.0 | 0.00 | 0.00 | 0.00 | 83 | 1011.1 |
| 20260906091203 | 77 | 0 | 0.0 | 0.0 | 0.00 | 0.00 | 0.00 | 83 | 1011.1 |
| 20260906091103 | 77 | 0 | 0.0 | 0.0 | 0.00 | 0.00 | 0.00 | 83 | 1011.1 |
| 20260906091004 | 77 | 0 | 0.0 | 0.0 | 0.00 | 0.00 | 0.00 | 83 | 1011.1 |
| 20260906090903 | 77 | 0 | 0.0 | 0.0 | 0.00 | 0.00 | 0.00 | 83 | 1011.1 |
| 20260906090804 | 77 | 0 | 0.0 | 0.0 | 0.00 | 0.00 | 0.00 | 83 | 1011.1 |
| 20260906085004 | 77 | 0 | 0.0 | 0.0 | 0.00 | 0.00 | 0.00 | 83 | 1011.1 |
| 20260906084903 | 77 | 0 | 0.0 | 0.0 | 0.00 | 0.00 | 0.00 | 83 | 1011.1 |
| 20260906084803 | 77 | 0 | 0.0 | 0.0 | 0.00 | 0.00 | 0.00 | 83 | 1011.1 |
| 20260906084003 | 77 | 0 | 0.0 | 0.0 | 0.00 | 0.00 | 0.00 | 83 | 1011.1 |
| 20260906083904 | 77 | 0 | 0.0 | 0.0 | 0.00 | 0.00 | 0.00 | 83 | 1011.1 |
| 20260906083703 | 77 | 0 | 0.0 | 0.0 | 0.00 | 0.00 | 0.00 | 83 | 1011.1 |
| 20260906083203 | 77 | 0 | 0.0 | 0.0 | 0.00 | 0.00 | 0.00 | 83 | 1011.1 |
| 20260906083103 | 77 | 0 | 0.0 | 0.0 | 0.00 | 0.00 | 0.00 | 83 | 1011.1 |
| 20260906083004 | 77 | 0 | 0.0 | 0.0 | 0.00 | 0.00 | 0.00 | 83 | 1011.1 |
| 20260906082903 | 77 | 0 | 0.0 | 0.0 | 0.00 | 0.00 | 0.00 | 82 | 1011.1 |
| 20260906082803 | 77 | 0 | 0.0 | 0.0 | 0.00 | 0.00 | 0.00 | 82 | 1011.1 |
| 20260906082704 | 77 | 0 | 0.0 | 0.0 | 0.00 | 0.00 | 0.00 | 82 | 1011.1 |
| 20260906082604 | 77 | 0 | 0.0 | 0.0 | 0.00 | 0.00 | 0.00 | 82 | 1011.1 |
| 20260906082503 | 77 | 0 | 0.0 | 0.0 | 0.00 | 0.00 | 0.00 | 82 | 1011.1 |
| 20260906082404 | 77 | 0 | 0.0 | 0.0 | 0.00 | 0.00 | 0.00 | 82 | 1011.1 |
| 20260906082306 | 77 | 0 | 0.0 | 0.0 | 0.00 | 0.00 | 0.00 | 82 | 1011.2 |
| 20260906082203 | 77 | 0 | 0.0 | 0.0 | 0.00 | 0.00 | 0.00 | 82 | 1011.1 |
| 20260906082103 | 77 | 0 | 0.0 | 0.0 | 0.00 | 0.00 | 0.00 | 82 | 1011.2 |
| 20260906082004 | 77 | 0 | 0.0 | 0.0 | 0.00 | 0.00 | 0.00 | 82 | 1011.1 |
| 20260906081903 | 77 | 0 | 0.0 | 0.0 | 0.00 | 0.00 | 0.00 | 82 | 1011.1 |
| 20260906081803 | 77 | 0 | 0.0 | 0.0 | 0.00 | 0.00 | 0.00 | 82 | 1011.1 |
| 20260906081703 | 77 | 0 | 0.0 | 0.0 | 0.00 | 0.00 | 0.00 | 82 | 1011.1 |
| 20260906081604 | 77 | 0 | 0.0 | 0.0 | 0.00 | 0.00 | 0.00 | 82 | 1011.1 |
| 20260906081503 | 77 | 0 | 0.0 | 0.0 | 0.00 | 0.00 | 0.00 | 82 | 1011.1 |
| 20260906081403 | 77 | 0 | 0.0 | 0.0 | 0.00 | 0.00 | 0.00 | 82 | 1011.1 |
| 20260906081304 | 77 | 0 | 0.0 | 0.0 | 0.00 | 0.00 | 0.00 | 82 | 1011.1 |
| 20260906081203 | 77 | 0 | 0.0 | 0.0 | 0.00 | 0.00 | 0.00 | 82 | 1011.2 |
| 20260906081103 | 77 | 0 | 0.0 | 0.0 | 0.00 | 0.00 | 0.00 | 82 | 1011.2 |
| 20260906081004 | 77 | 0 | 0.0 | 0.0 | 0.00 | 0.00 | 0.00 | 82 | 1011.1 |
| 20260906080903 | 77 | 0 | 0.0 | 0.0 | 0.00 | 0.00 | 0.00 | 82 | 1011.1 |
| 20260906080803 | 77 | 0 | 0.0 | 0.0 | 0.00 | 0.00 | 0.00 | 82 | 1011.1 |
| 20260906080703 | 77 | 0 | 0.0 | 0.0 | 0.00 | 0.00 | 0.00 | 82 | 1011.1 |
| 20260906080603 | 77 | 0 | 0.0 | 0.0 | 0.00 | 0.00 | 0.00 | 82 | 1011.1 |
| 20260906080504 | 77 | 0 | 0.0 | 0.0 | 0.00 | 0.00 | 0.00 | 82 | 1011.1 |
| 20260906080403 | 77 | 0 | 0.0 | 0.0 | 0.00 | 0.00 | 0.00 | 82 | 1011.1 |
| 20260906080303 | 77 | 0 | 0.0 | 0.0 | 0.00 | 0.00 | 0.00 | 82 | 1011.1 |
| 20260906080203 | 77 | 0 | 0.0 | 0.0 | 0.00 | 0.00 | 0.00 | 82 | 1011.1 |
| 20260906080104 | 77 | 0 | 0.0 | 0.0 | 0.00 | 0.00 | 0.00 | 82 | 1011.1 |
| 20260906080004 | 77 | 0 | 0.0 | 0.0 | 0.00 | 0.00 | 0.00 | 82 | 1011.1 |
| 20260906075903 | 77 | 0 | 0.0 | 0.0 | 0.00 | 0.00 | 0.00 | 82 | 1011.1 |
| 20260906075804 | 77 | 0 | 0.0 | 0.0 | 0.00 | 0.00 | 0.00 | 82 | 1011.1 |
| 20260906075703 | 77 | 0 | 0.0 | 0.0 | 0.00 | 0.00 | 0.00 | 82 | 1011.1 |
| 20260906075203 | 77 | 0 | 0.0 | 0.0 | 0.00 | 0.00 | 0.00 | 81 | 1011.1 |
| 20260906075103 | 78 | 0 | 0.0 | 0.0 | 0.00 | 0.00 | 0.00 | 81 | 1011.0 |
| 20260906074703 | 78 | 0 | 0.0 | 0.0 | 0.00 | 0.00 | 0.00 | 81 | 1011.1 |
| 20260906073704 | 78 | 0 | 0.0 | 0.0 | 0.00 | 0.00 | 0.00 | 81 | 1011.1 |
| 20260906073503 | 78 | 0 | 0.0 | 0.0 | 0.00 | 0.00 | 0.00 | 81 | 1011.1 |
| 20260906072203 | 78 | 0 | 0.0 | 0.0 | 0.00 | 0.00 | 0.00 | 81 | 1011.2 |
| 20260906072004 | 78 | 0 | 0.0 | 0.0 | 0.00 | 0.00 | 0.00 | 81 | 1011.2 |
| 20260906071903 | 78 | 0 | 0.0 | 0.0 | 0.00 | 0.00 | 0.00 | 81 | 1011.2 |
| 20260906071803 | 78 | 0 | 0.0 | 0.0 | 0.00 | 0.00 | 0.00 | 81 | 1011.2 |
| 20260906071704 | 78 | 0 | 0.0 | 0.0 | 0.00 | 0.00 | 0.00 | 81 | 1011.2 |
| 20260906071503 | 78 | 0 | 0.0 | 0.0 | 0.00 | 0.00 | 0.00 | 80 | 1011.2 |
| 20260906071404 | 78 | 0 | 0.0 | 0.0 | 0.00 | 0.00 | 0.00 | 80 | 1011.2 |
| 20260906071304 | 78 | 0 | 0.0 | 0.0 | 0.00 | 0.00 | 0.00 | 80 | 1011.2 |
| 20260906071203 | 78 | 0 | 0.0 | 0.0 | 0.00 | 0.00 | 0.00 | 80 | 1011.2 |
| 20260906071103 | 78 | 0 | 0.0 | 0.0 | 0.00 | 0.00 | 0.00 | 80 | 1011.2 |
| 20260906071004 | 78 | 0 | 0.0 | 0.0 | 0.00 | 0.00 | 0.00 | 80 | 1011.2 |
| 20260906070903 | 78 | 0 | 0.0 | 0.0 | 0.00 | 0.00 | 0.00 | 80 | 1011.2 |
| 20260906070803 | 78 | 0 | 0.0 | 0.0 | 0.00 | 0.00 | 0.00 | 80 | 1011.2 |
| 20260906070703 | 78 | 0 | 0.0 | 0.0 | 0.00 | 0.00 | 0.00 | 80 | 1011.3 |
| 20260906070604 | 78 | 0 | 0.0 | 0.0 | 0.00 | 0.00 | 0.00 | 80 | 1011.3 |
| 20260906070503 | 78 | 0 | 0.0 | 0.0 | 0.00 | 0.00 | 0.00 | 80 | 1011.3 |
| 20260906070404 | 78 | 0 | 0.0 | 0.0 | 0.00 | 0.00 | 0.00 | 80 | 1011.3 |
| 20260906070303 | 78 | 0 | 0.0 | 0.0 | 0.00 | 0.00 | 0.00 | 80 | 1011.3 |
| 20260906070203 | 78 | 0 | 0.0 | 0.0 | 0.00 | 0.00 | 0.00 | 80 | 1011.3 |
| 20260906070104 | 78 | 0 | 0.0 | 0.0 | 0.00 | 0.00 | 0.00 | 80 | 1011.3 |
| 20260906070004 | 78 | 0 | 0.0 | 0.0 | 0.00 | 0.00 | 0.00 | 80 | 1011.3 |
| 20260906065903 | 78 | 0 | 0.0 | 0.0 | 0.00 | 0.00 | 0.00 | 80 | 1011.3 |
| 20260906065803 | 78 | 0 | 0.0 | 0.0 | 0.00 | 0.00 | 0.00 | 80 | 1011.3 |
| 20260906065703 | 78 | 0 | 0.0 | 0.0 | 0.00 | 0.00 | 0.00 | 80 | 1011.2 |
| 20260906065603 | 78 | 0 | 0.0 | 0.0 | 0.00 | 0.00 | 0.00 | 80 | 1011.2 |
| 20260906065504 | 78 | 0 | 0.0 | 0.0 | 0.00 | 0.00 | 0.00 | 80 | 1011.2 |
| 20260906065403 | 78 | 0 | 0.0 | 0.0 | 0.00 | 0.00 | 0.00 | 80 | 1011.3 |
| 20260906065305 | 78 | 0 | 0.0 | 0.0 | 0.00 | 0.00 | 0.00 | 80 | 1011.3 |
| 20260906065204 | 78 | 0 | 0.0 | 0.0 | 0.00 | 0.00 | 0.00 | 80 | 1011.2 |
| 20260906065103 | 78 | 0 | 0.0 | 0.0 | 0.00 | 0.00 | 0.00 | 80 | 1011.2 |
| 20260906065003 | 78 | 0 | 0.0 | 0.0 | 0.00 | 0.00 | 0.00 | 80 | 1011.3 |
| 20260906064904 | 78 | 0 | 0.0 | 0.0 | 0.00 | 0.00 | 0.00 | 80 | 1011.3 |
| 20260906064804 | 78 | 0 | 0.0 | 0.0 | 0.00 | 0.00 | 0.00 | 80 | 1011.3 |
| 20260906064703 | 78 | 0 | 0.0 | 0.0 | 0.00 | 0.00 | 0.00 | 80 | 1011.3 |
| 20260906064603 | 78 | 0 | 0.0 | 0.0 | 0.00 | 0.00 | 0.00 | 80 | 1011.3 |
| 20260906064504 | 78 | 0 | 0.0 | 0.0 | 0.00 | 0.00 | 0.00 | 80 | 1011.3 |
| 20260906064403 | 78 | 0 | 0.0 | 0.0 | 0.00 | 0.00 | 0.00 | 80 | 1011.3 |
| 20260906064303 | 78 | 0 | 0.0 | 0.0 | 0.00 | 0.00 | 0.00 | 80 | 1011.3 |
| 20260906064103 | 78 | 0 | 0.0 | 0.0 | 0.00 | 0.00 | 0.00 | 80 | 1011.3 |
| 20260906064004 | 78 | 0 | 0.0 | 0.0 | 0.00 | 0.00 | 0.00 | 80 | 1011.3 |
| 20260906063903 | 78 | 0 | 0.0 | 0.0 | 0.00 | 0.00 | 0.00 | 80 | 1011.3 |
| 20260906063704 | 78 | 0 | 0.0 | 0.0 | 0.00 | 0.00 | 0.00 | 80 | 1011.4 |
| 20260906062004 | 79 | 0 | 0.0 | 0.0 | 0.00 | 0.00 | 0.00 | 79 | 1011.5 |
| 20260906061104 | 79 | 0 | 0.0 | 0.0 | 0.00 | 0.00 | 0.00 | 79 | 1011.4 |
| 20260906060103 | 79 | 0 | 0.0 | 0.0 | 0.00 | 0.00 | 0.00 | 79 | 1011.3 |
| 20260906060004 | 79 | 0 | 0.0 | 0.0 | 0.00 | 0.00 | 0.00 | 79 | 1011.4 |
| 20260906055903 | 79 | 0 | 0.0 | 0.0 | 0.00 | 0.00 | 0.00 | 79 | 1011.4 |
| 20260906055803 | 79 | 0 | 0.0 | 0.0 | 0.00 | 0.00 | 0.00 | 79 | 1011.5 |
| 20260906055703 | 79 | 0 | 0.0 | 0.0 | 0.00 | 0.00 | 0.00 | 79 | 1011.5 |
| 20260906055604 | 79 | 0 | 0.0 | 0.0 | 0.00 | 0.00 | 0.00 | 79 | 1011.4 |
| 20260906055504 | 79 | 0 | 0.0 | 0.0 | 0.00 | 0.00 | 0.00 | 79 | 1011.4 |
| 20260906055403 | 79 | 0 | 0.0 | 0.0 | 0.00 | 0.00 | 0.00 | 79 | 1011.4 |
| 20260906055306 | 79 | 0 | 0.0 | 0.0 | 0.00 | 0.00 | 0.00 | 78 | 1011.4 |
| 20260906055204 | 79 | 0 | 0.0 | 0.0 | 0.00 | 0.00 | 0.00 | 78 | 1011.4 |
| 20260906055103 | 79 | 0 | 0.0 | 0.0 | 0.00 | 0.00 | 0.00 | 78 | 1011.4 |
| 20260906055004 | 79 | 0 | 0.0 | 0.0 | 0.00 | 0.00 | 0.00 | 78 | 1011.4 |
| 20260906054904 | 79 | 0 | 0.0 | 0.0 | 0.00 | 0.00 | 0.00 | 78 | 1011.4 |
| 20260906054803 | 79 | 0 | 0.0 | 0.0 | 0.00 | 0.00 | 0.00 | 78 | 1011.4 |
| 20260906054703 | 79 | 0 | 0.0 | 0.0 | 0.00 | 0.00 | 0.00 | 78 | 1011.4 |
| 20260906054603 | 79 | 0 | 0.0 | 0.0 | 0.00 | 0.00 | 0.00 | 78 | 1011.4 |
| 20260906054504 | 79 | 0 | 0.0 | 0.0 | 0.00 | 0.00 | 0.00 | 78 | 1011.4 |
| 20260906054403 | 79 | 0 | 0.0 | 0.0 | 0.00 | 0.00 | 0.00 | 78 | 1011.4 |
| 20260906054303 | 79 | 0 | 0.0 | 0.0 | 0.00 | 0.00 | 0.00 | 78 | 1011.4 |
| 20260906054203 | 79 | 0 | 0.0 | 0.0 | 0.00 | 0.00 | 0.00 | 78 | 1011.4 |
| 20260906054104 | 79 | 0 | 0.0 | 0.0 | 0.00 | 0.00 | 0.00 | 78 | 1011.4 |
| 20260906054003 | 79 | 0 | 0.0 | 0.0 | 0.00 | 0.00 | 0.00 | 78 | 1011.4 |
| 20260906053903 | 79 | 0 | 0.0 | 0.0 | 0.00 | 0.00 | 0.00 | 78 | 1011.4 |
| 20260906053804 | 79 | 0 | 0.0 | 0.0 | 0.00 | 0.00 | 0.00 | 78 | 1011.4 |
| 20260906053704 | 79 | 0 | 0.0 | 0.0 | 0.00 | 0.00 | 0.00 | 78 | 1011.4 |
| 20260906053603 | 79 | 0 | 0.0 | 0.0 | 0.00 | 0.00 | 0.00 | 78 | 1011.4 |
| 20260906053504 | 79 | 0 | 0.0 | 0.0 | 0.00 | 0.00 | 0.00 | 78 | 1011.4 |
| 20260906053404 | 79 | 0 | 0.0 | 0.0 | 0.00 | 0.00 | 0.00 | 78 | 1011.4 |
| 20260906053303 | 79 | 0 | 0.0 | 0.0 | 0.00 | 0.00 | 0.00 | 78 | 1011.4 |
| 20260906053203 | 79 | 0 | 0.0 | 0.0 | 0.00 | 0.00 | 0.00 | 78 | 1011.4 |
| 20260906053103 | 79 | 0 | 0.0 | 0.0 | 0.00 | 0.00 | 0.00 | 78 | 1011.3 |
| 20260906053004 | 79 | 0 | 0.0 | 0.0 | 0.00 | 0.00 | 0.00 | 78 | 1011.3 |
| 20260906052903 | 79 | 0 | 0.0 | 0.0 | 0.00 | 0.00 | 0.00 | 78 | 1011.3 |
| 20260906052803 | 79 | 0 | 0.0 | 0.0 | 0.00 | 0.00 | 0.00 | 78 | 1011.3 |
| 20260906052703 | 79 | 0 | 0.0 | 0.0 | 0.00 | 0.00 | 0.00 | 78 | 1011.3 |
| 20260906052604 | 79 | 0 | 0.0 | 0.0 | 0.00 | 0.00 | 0.00 | 77 | 1011.3 |
| 20260906052504 | 79 | 0 | 0.0 | 0.0 | 0.00 | 0.00 | 0.00 | 77 | 1011.3 |
| 20260906052403 | 79 | 0 | 0.0 | 0.0 | 0.00 | 0.00 | 0.00 | 77 | 1011.3 |
| 20260906052305 | 79 | 0 | 0.0 | 0.0 | 0.00 | 0.00 | 0.00 | 77 | 1011.3 |
| 20260906050303 | 80 | 0 | 0.0 | 0.0 | 0.00 | 0.00 | 0.00 | 77 | 1011.2 |
| 20260906050204 | 80 | 0 | 0.0 | 0.0 | 0.00 | 0.00 | 0.00 | 77 | 1011.2 |
| 20260906050005 | 80 | 0 | 0.0 | 0.0 | 0.00 | 0.00 | 0.00 | 77 | 1011.2 |
| 20260906044904 | 80 | 0 | 0.0 | 0.0 | 0.00 | 0.00 | 0.00 | 76 | 1011.2 |
| 20260906044803 | 80 | 0 | 0.0 | 0.0 | 0.00 | 0.00 | 0.00 | 76 | 1011.2 |
| 20260906044703 | 80 | 0 | 0.0 | 0.0 | 0.00 | 0.00 | 0.00 | 76 | 1011.2 |
| 20260906044603 | 80 | 0 | 0.0 | 0.0 | 0.00 | 0.00 | 0.00 | 76 | 1011.2 |
| 20260906044504 | 80 | 0 | 0.0 | 0.0 | 0.00 | 0.00 | 0.00 | 76 | 1011.2 |
| 20260906044403 | 80 | 0 | 0.0 | 0.0 | 0.00 | 0.00 | 0.00 | 76 | 1011.2 |
| 20260906044303 | 80 | 0 | 0.0 | 0.0 | 0.00 | 0.00 | 0.00 | 76 | 1011.2 |
| 20260906044203 | 80 | 0 | 0.0 | 0.0 | 0.00 | 0.00 | 0.00 | 76 | 1011.2 |
| 20260906044104 | 80 | 0 | 0.0 | 0.0 | 0.00 | 0.00 | 0.00 | 76 | 1011.2 |
| 20260906044004 | 80 | 0 | 0.0 | 0.0 | 0.00 | 0.00 | 0.00 | 76 | 1011.2 |
| 20260906043903 | 80 | 0 | 0.0 | 0.0 | 0.00 | 0.00 | 0.00 | 76 | 1011.1 |
| 20260906043804 | 80 | 0 | 0.0 | 0.0 | 0.00 | 0.00 | 0.00 | 76 | 1011.1 |
| 20260906043704 | 80 | 0 | 0.0 | 0.0 | 0.00 | 0.00 | 0.00 | 76 | 1011.1 |
| 20260906043603 | 80 | 0 | 0.0 | 0.0 | 0.00 | 0.00 | 0.00 | 76 | 1011.1 |
| 20260906043504 | 80 | 0 | 0.0 | 0.0 | 0.00 | 0.00 | 0.00 | 76 | 1011.0 |
| 20260906043403 | 80 | 0 | 0.0 | 0.0 | 0.00 | 0.00 | 0.00 | 75 | 1011.1 |
| 20260906043303 | 80 | 0 | 0.0 | 0.0 | 0.00 | 0.00 | 0.00 | 75 | 1011.1 |
| 20260906043203 | 80 | 0 | 0.0 | 0.0 | 0.00 | 0.00 | 0.00 | 75 | 1011.1 |
| 20260906043103 | 80 | 0 | 0.0 | 0.0 | 0.00 | 0.00 | 0.00 | 75 | 1011.1 |
| 20260906043004 | 80 | 0 | 0.0 | 0.0 | 0.00 | 0.00 | 0.00 | 75 | 1011.1 |
| 20260906042903 | 80 | 0 | 0.0 | 0.0 | 0.00 | 0.00 | 0.00 | 75 | 1011.1 |
| 20260906042803 | 80 | 0 | 0.0 | 0.0 | 0.00 | 0.00 | 0.00 | 75 | 1011.1 |
| 20260906042703 | 80 | 0 | 0.0 | 0.0 | 0.00 | 0.00 | 0.00 | 75 | 1011.1 |
| 20260906042604 | 80 | 0 | 0.0 | 0.0 | 0.00 | 0.00 | 0.00 | 76 | 1011.1 |
| 20260906042503 | 80 | 0 | 0.0 | 0.0 | 0.00 | 0.00 | 0.00 | 75 | 1011.1 |
| 20260906042403 | 80 | 0 | 0.0 | 0.0 | 0.00 | 0.00 | 0.00 | 75 | 1011.1 |
| 20260906042306 | 80 | 0 | 0.0 | 0.0 | 0.00 | 0.00 | 0.00 | 75 | 1011.2 |
| 20260906042204 | 80 | 0 | 0.0 | 0.0 | 0.00 | 0.00 | 0.00 | 75 | 1011.2 |
| 20260906042103 | 80 | 0 | 0.0 | 0.0 | 0.00 | 0.00 | 0.00 | 75 | 1011.1 |
| 20260906042004 | 80 | 0 | 0.0 | 0.0 | 0.00 | 0.00 | 0.00 | 75 | 1011.2 |
| 20260906041904 | 80 | 0 | 0.0 | 0.0 | 0.00 | 0.00 | 0.00 | 75 | 1011.2 |
| 20260906041803 | 80 | 0 | 0.0 | 0.0 | 0.00 | 0.00 | 0.00 | 75 | 1011.1 |
| 20260906041703 | 80 | 0 | 0.0 | 0.0 | 0.00 | 0.00 | 0.00 | 75 | 1011.1 |
| 20260906041603 | 80 | 0 | 0.0 | 0.0 | 0.00 | 0.00 | 0.00 | 75 | 1011.2 |
| 20260906041504 | 80 | 0 | 0.0 | 0.0 | 0.00 | 0.00 | 0.00 | 75 | 1011.2 |
| 20260906041403 | 80 | 0 | 0.0 | 0.0 | 0.00 | 0.00 | 0.00 | 75 | 1011.2 |
| 20260906041303 | 80 | 0 | 0.0 | 0.0 | 0.00 | 0.00 | 0.00 | 75 | 1011.2 |
| 20260906041203 | 80 | 0 | 0.0 | 0.0 | 0.00 | 0.00 | 0.00 | 75 | 1011.2 |
| 20260906041103 | 80 | 0 | 0.0 | 0.0 | 0.00 | 0.00 | 0.00 | 75 | 1011.1 |
| 20260906040104 | 81 | 0 | 0.0 | 0.0 | 0.00 | 0.00 | 0.00 | 74 | 1011.1 |
| 20260906034603 | 81 | 0 | 0.0 | 0.0 | 0.00 | 0.00 | 0.00 | 73 | 1011.1 |
| 20260906033704 | 81 | 0 | 0.0 | 0.0 | 0.00 | 0.00 | 0.00 | 73 | 1011.2 |
| 20260906033604 | 81 | 0 | 0.0 | 0.0 | 0.00 | 0.00 | 0.00 | 74 | 1011.2 |
| 20260906033503 | 81 | 0 | 0.0 | 0.0 | 0.00 | 0.00 | 0.00 | 74 | 1011.2 |
| 20260906033404 | 81 | 0 | 0.0 | 0.0 | 0.00 | 0.00 | 0.00 | 73 | 1011.2 |
| 20260906033304 | 82 | 0 | 0.0 | 0.0 | 0.00 | 0.00 | 0.00 | 73 | 1011.2 |
| 20260906033203 | 82 | 0 | 0.0 | 0.0 | 0.00 | 0.00 | 0.00 | 73 | 1011.2 |
| 20260906033103 | 82 | 0 | 0.0 | 0.0 | 0.00 | 0.00 | 0.00 | 73 | 1011.3 |
| 20260906033004 | 82 | 0 | 0.0 | 0.0 | 0.00 | 0.00 | 0.00 | 73 | 1011.3 |
| 20260906032903 | 82 | 0 | 0.0 | 0.0 | 0.00 | 0.00 | 0.00 | 73 | 1011.3 |
| 20260906032803 | 82 | 0 | 0.0 | 0.0 | 0.00 | 0.00 | 0.00 | 73 | 1011.3 |
| 20260906032703 | 82 | 0 | 0.0 | 0.0 | 0.00 | 0.00 | 0.00 | 73 | 1011.3 |
| 20260906032603 | 82 | 0 | 0.0 | 0.0 | 0.00 | 0.00 | 0.00 | 73 | 1011.3 |
| 20260906032504 | 82 | 0 | 0.0 | 0.0 | 0.00 | 0.00 | 0.00 | 73 | 1011.3 |
| 20260906032403 | 82 | 0 | 0.0 | 0.0 | 0.00 | 0.00 | 0.00 | 73 | 1011.3 |
| 20260906032306 | 82 | 0 | 0.0 | 0.0 | 0.00 | 0.00 | 0.00 | 73 | 1011.3 |
| 20260906032203 | 82 | 0 | 0.0 | 0.0 | 0.00 | 0.00 | 0.00 | 73 | 1011.3 |
| 20260906032104 | 82 | 0 | 0.0 | 0.0 | 0.00 | 0.00 | 0.00 | 73 | 1011.3 |
| 20260906032003 | 82 | 0 | 0.0 | 0.0 | 0.00 | 0.00 | 0.00 | 73 | 1011.4 |
| 20260906031904 | 82 | 0 | 0.0 | 0.0 | 0.00 | 0.00 | 0.00 | 73 | 1011.4 |
| 20260906031804 | 82 | 0 | 0.0 | 0.0 | 0.00 | 0.00 | 0.00 | 73 | 1011.4 |
| 20260906031703 | 82 | 0 | 0.0 | 0.0 | 0.00 | 0.00 | 0.00 | 73 | 1011.4 |
| 20260906031603 | 82 | 0 | 0.0 | 0.0 | 0.00 | 0.00 | 0.00 | 73 | 1011.4 |
| 20260906031504 | 82 | 0 | 0.0 | 0.0 | 0.00 | 0.00 | 0.00 | 73 | 1011.5 |
| 20260906031403 | 82 | 0 | 0.0 | 0.0 | 0.00 | 0.00 | 0.00 | 72 | 1011.5 |
| 20260906031303 | 82 | 0 | 0.0 | 0.0 | 0.00 | 0.00 | 0.00 | 72 | 1011.5 |
| 20260906031203 | 82 | 0 | 0.0 | 0.0 | 0.00 | 0.00 | 0.00 | 72 | 1011.5 |
| 20260906031103 | 82 | 0 | 0.0 | 0.0 | 0.00 | 0.00 | 0.00 | 72 | 1011.4 |
| 20260906031004 | 82 | 0 | 0.0 | 0.0 | 0.00 | 0.00 | 0.00 | 72 | 1011.4 |
| 20260906030903 | 82 | 0 | 0.0 | 0.0 | 0.00 | 0.00 | 0.00 | 72 | 1011.4 |
| 20260906030803 | 82 | 0 | 0.0 | 0.0 | 0.00 | 0.00 | 0.00 | 72 | 1011.4 |
| 20260906030703 | 82 | 0 | 0.0 | 0.0 | 0.00 | 0.00 | 0.00 | 72 | 1011.5 |
| 20260906030104 | 83 | 0 | 0.0 | 0.0 | 0.00 | 0.00 | 0.00 | 72 | 1011.4 |
| 20260906030004 | 83 | 0 | 0.0 | 0.0 | 0.00 | 0.00 | 0.00 | 72 | 1011.4 |
| 20260906025904 | 83 | 0 | 0.0 | 0.0 | 0.00 | 0.00 | 0.00 | 72 | 1011.4 |
| 20260906025803 | 83 | 0 | 0.0 | 0.0 | 0.00 | 0.00 | 0.00 | 71 | 1011.4 |
| 20260906025703 | 83 | 0 | 0.0 | 0.0 | 0.00 | 0.00 | 0.00 | 71 | 1011.3 |
| 20260906025603 | 83 | 0 | 0.0 | 0.0 | 0.00 | 0.00 | 0.00 | 71 | 1011.4 |
| 20260906025403 | 83 | 0 | 0.0 | 0.0 | 0.00 | 0.00 | 0.00 | 71 | 1011.3 |
| 20260906025306 | 83 | 0 | 0.0 | 0.0 | 0.00 | 0.00 | 0.00 | 71 | 1011.4 |
| 20260906025203 | 83 | 0 | 0.0 | 0.0 | 0.00 | 0.00 | 0.00 | 71 | 1011.4 |
| 20260906025103 | 83 | 0 | 0.0 | 0.0 | 0.00 | 0.00 | 0.00 | 71 | 1011.4 |
| 20260906023203 | 84 | 0 | 0.0 | 0.0 | 0.00 | 0.00 | 0.00 | 70 | 1011.1 |
| 20260906023004 | 84 | 0 | 0.0 | 0.0 | 0.00 | 0.00 | 0.00 | 69 | 1011.1 |
| 20260906022803 | 84 | 0 | 0.0 | 0.0 | 0.00 | 0.00 | 0.00 | 69 | 1011.0 |
| 20260906022703 | 84 | 0 | 0.0 | 0.0 | 0.00 | 0.00 | 0.00 | 69 | 1011.0 |
| 20260906022603 | 84 | 0 | 0.0 | 0.0 | 0.00 | 0.00 | 0.00 | 69 | 1011.0 |
| 20260906022504 | 84 | 0 | 0.0 | 0.0 | 0.00 | 0.00 | 0.00 | 69 | 1011.0 |
| 20260906022403 | 84 | 0 | 0.0 | 0.0 | 0.00 | 0.00 | 0.00 | 69 | 1011.0 |
| 20260906022306 | 84 | 0 | 0.0 | 0.0 | 0.00 | 0.00 | 0.00 | 69 | 1011.0 |
| 20260906022204 | 84 | 0 | 0.0 | 0.0 | 0.00 | 0.00 | 0.00 | 69 | 1011.0 |
| 20260906022104 | 84 | 0 | 0.0 | 0.0 | 0.00 | 0.00 | 0.00 | 69 | 1011.0 |
| 20260906022003 | 84 | 0 | 0.0 | 0.0 | 0.00 | 0.00 | 0.00 | 69 | 1010.9 |
| 20260906021904 | 84 | 0 | 0.0 | 0.0 | 0.00 | 0.00 | 0.00 | 69 | 1011.0 |
| 20260906021803 | 84 | 0 | 0.0 | 0.0 | 0.00 | 0.00 | 0.00 | 69 | 1011.0 |
| 20260906021703 | 84 | 0 | 0.0 | 0.0 | 0.00 | 0.00 | 0.00 | 69 | 1010.9 |
| 20260906021603 | 84 | 0 | 0.0 | 0.0 | 0.00 | 0.00 | 0.00 | 69 | 1010.9 |
| 20260906021504 | 84 | 0 | 0.0 | 0.0 | 0.00 | 0.00 | 0.00 | 69 | 1010.9 |
| 20260906021403 | 84 | 0 | 0.0 | 0.0 | 0.00 | 0.00 | 0.00 | 69 | 1010.9 |
| 20260906021303 | 84 | 0 | 0.0 | 0.0 | 0.00 | 0.00 | 0.00 | 68 | 1010.8 |
| 20260906021203 | 85 | 0 | 0.0 | 0.0 | 0.00 | 0.00 | 0.00 | 68 | 1010.8 |
| 20260906021104 | 85 | 0 | 0.0 | 0.0 | 0.00 | 0.00 | 0.00 | 68 | 1010.8 |
| 20260906021004 | 85 | 0 | 0.0 | 0.0 | 0.00 | 0.00 | 0.00 | 68 | 1010.7 |
| 20260906020903 | 85 | 0 | 0.0 | 0.0 | 0.00 | 0.00 | 0.00 | 68 | 1010.7 |
| 20260906020804 | 85 | 0 | 0.0 | 0.0 | 0.00 | 0.00 | 0.00 | 68 | 1010.7 |
| 20260906020704 | 85 | 0 | 0.0 | 0.0 | 0.00 | 0.00 | 0.00 | 68 | 1010.7 |
| 20260906020603 | 85 | 0 | 0.0 | 0.0 | 0.00 | 0.00 | 0.00 | 68 | 1010.7 |
| 20260906020504 | 85 | 0 | 0.0 | 0.0 | 0.00 | 0.00 | 0.00 | 68 | 1010.7 |
| 20260906020404 | 85 | 0 | 0.0 | 0.0 | 0.00 | 0.00 | 0.00 | 68 | 1010.7 |
| 20260906020303 | 85 | 0 | 0.0 | 0.0 | 0.00 | 0.00 | 0.00 | 68 | 1010.7 |
| 20260906020203 | 85 | 0 | 0.0 | 0.0 | 0.00 | 0.00 | 0.00 | 68 | 1010.6 |
| 20260906020004 | 85 | 0 | 0.0 | 0.0 | 0.00 | 0.00 | 0.00 | 67 | 1010.5 |
| 20260906015903 | 85 | 0 | 0.0 | 0.0 | 0.00 | 0.00 | 0.00 | 67 | 1010.5 |
| 20260906015803 | 85 | 0 | 0.0 | 0.0 | 0.00 | 0.00 | 0.00 | 67 | 1010.5 |
| 20260906015703 | 85 | 0 | 0.0 | 0.0 | 0.00 | 0.00 | 0.00 | 67 | 1010.4 |
| 20260906015604 | 85 | 0 | 0.0 | 0.0 | 0.00 | 0.00 | 0.00 | 67 | 1010.5 |
| 20260906015306 | 86 | 0 | 0.0 | 0.0 | 0.00 | 0.00 | 0.00 | 66 | 1010.4 |
| 20260906012804 | 87 | 0 | 0.0 | 0.0 | 0.00 | 0.00 | 0.00 | 64 | 1010.1 |
| 20260906012103 | 87 | 0 | 0.0 | 0.0 | 0.00 | 0.00 | 0.00 | 63 | 1010.1 |
| 20260906012004 | 87 | 0 | 0.0 | 0.0 | 0.00 | 0.00 | 0.00 | 63 | 1010.1 |
| 20260906011903 | 87 | 0 | 0.0 | 0.0 | 0.00 | 0.00 | 0.00 | 63 | 1010.1 |
| 20260906011803 | 87 | 0 | 0.0 | 0.0 | 0.00 | 0.00 | 0.00 | 63 | 1010.1 |
| 20260906011703 | 88 | 0 | 0.0 | 0.0 | 0.00 | 0.00 | 0.00 | 63 | 1010.0 |
| 20260906011603 | 88 | 0 | 0.0 | 0.0 | 0.00 | 0.00 | 0.00 | 63 | 1010.0 |
| 20260906011504 | 88 | 0 | 0.0 | 0.0 | 0.00 | 0.00 | 0.00 | 62 | 1010.0 |
| 20260906011403 | 88 | 0 | 0.0 | 0.0 | 0.00 | 0.00 | 0.00 | 62 | 1010.1 |
| 20260906011303 | 88 | 0 | 0.0 | 0.0 | 0.00 | 0.00 | 0.00 | 62 | 1010.0 |
| 20260906011204 | 88 | 0 | 0.0 | 0.0 | 0.00 | 0.00 | 0.00 | 62 | 1010.0 |
| 20260906011104 | 88 | 0 | 0.0 | 0.0 | 0.00 | 0.00 | 0.00 | 62 | 1010.0 |
| 20260906011003 | 88 | 0 | 0.0 | 0.0 | 0.00 | 0.00 | 0.00 | 62 | 1009.9 |
| 20260906010904 | 88 | 0 | 0.0 | 0.0 | 0.00 | 0.00 | 0.00 | 62 | 1009.9 |
| 20260906010804 | 88 | 0 | 0.0 | 0.0 | 0.00 | 0.00 | 0.00 | 61 | 1009.9 |
| 20260906010703 | 88 | 0 | 0.0 | 0.0 | 0.00 | 0.00 | 0.00 | 61 | 1009.9 |
| 20260906010603 | 88 | 0 | 0.0 | 0.0 | 0.00 | 0.00 | 0.00 | 61 | 1009.9 |
| 20260906010504 | 88 | 0 | 0.0 | 0.0 | 0.00 | 0.00 | 0.00 | 61 | 1009.9 |
| 20260906010403 | 89 | 0 | 0.0 | 0.0 | 0.00 | 0.00 | 0.00 | 61 | 1009.9 |
| 20260906010303 | 89 | 0 | 0.0 | 0.0 | 0.00 | 0.00 | 0.00 | 61 | 1009.9 |
| 20260906010203 | 89 | 0 | 0.0 | 0.0 | 0.00 | 0.00 | 0.00 | 60 | 1009.8 |
| 20260906010004 | 89 | 0 | 0.0 | 0.0 | 0.00 | 0.00 | 0.00 | 60 | 1009.8 |
| 20260906005903 | 89 | 0 | 0.0 | 0.0 | 0.00 | 0.00 | 0.00 | 60 | 1009.8 |
| 20260906005804 | 89 | 0 | 0.0 | 0.0 | 0.00 | 0.00 | 0.00 | 60 | 1009.8 |
| 20260906005704 | 89 | 0 | 0.0 | 0.0 | 0.00 | 0.00 | 0.00 | 60 | 1009.8 |
| 20260906005603 | 89 | 0 | 0.0 | 0.0 | 0.00 | 0.00 | 0.00 | 59 | 1009.8 |
| 20260906005503 | 89 | 0 | 0.0 | 0.0 | 0.00 | 0.00 | 0.00 | 59 | 1009.8 |
| 20260906005404 | 90 | 0 | 0.0 | 0.0 | 0.00 | 0.00 | 0.00 | 59 | 1009.9 |
| 20260906005306 | 90 | 0 | 0.0 | 0.0 | 0.00 | 0.00 | 0.00 | 59 | 1009.8 |
| 20260906005203 | 90 | 0 | 0.0 | 0.0 | 0.00 | 0.00 | 0.00 | 59 | 1009.9 |
| 20260906005103 | 90 | 0 | 0.0 | 0.0 | 0.00 | 0.00 | 0.00 | 59 | 1009.8 |
| 20260906005004 | 90 | 0 | 0.0 | 0.0 | 0.00 | 0.00 | 0.00 | 58 | 1009.8 |
| 20260906004903 | 90 | 0 | 0.0 | 0.0 | 0.00 | 0.00 | 0.00 | 58 | 1009.9 |
| 20260906004803 | 90 | 0 | 0.0 | 0.0 | 0.00 | 0.00 | 0.00 | 58 | 1009.9 |
| 20260906004703 | 90 | 0 | 0.0 | 0.0 | 0.00 | 0.00 | 0.00 | 58 | 1009.8 |
| 20260906004604 | 90 | 0 | 0.0 | 0.0 | 0.00 | 0.00 | 0.00 | 58 | 1009.8 |
| 20260906004504 | 90 | 0 | 0.0 | 0.0 | 0.00 | 0.00 | 0.00 | 57 | 1009.8 |
| 20260906003304 | 92 | 0 | 0.0 | 0.0 | 0.00 | 0.00 | 0.00 | 56 | 1009.8 |
| 20260906000503 | 95 | 0 | 0.0 | 0.0 | 0.00 | 0.00 | 0.00 | 50 | 1009.9 |
| 20260906000403 | 95 | 0 | 0.0 | 0.0 | 0.00 | 0.00 | 0.00 | 50 | 1009.9 |
| 20260906000304 | 95 | 0 | 0.0 | 0.0 | 0.00 | 0.00 | 0.00 | 50 | 1009.9 |
| 20260906000204 | 95 | 0 | 0.0 | 0.0 | 0.00 | 0.00 | 0.00 | 50 | 1010.0 |
| 20260906000103 | 95 | 0 | 0.0 | 0.0 | 0.00 | 0.00 | 0.00 | 50 | 1010.0 |
| 20260906000004 | 95 | 0 | 0.0 | 0.0 | 0.00 | 0.00 | 0.00 | 50 | 1010.0 |
| 20260905235903 | 96 | 0 | 0.0 | 0.0 | 0.00 | 0.00 | 0.00 | 50 | 1010.0 |
| 20260905235803 | 96 | 0 | 0.0 | 0.0 | 0.00 | 0.00 | 0.00 | 50 | 1010.1 |
| 20260905235703 | 96 | 0 | 0.0 | 0.0 | 0.00 | 0.00 | 0.00 | 50 | 1010.0 |
| 20260905235603 | 96 | 0 | 0.0 | 0.0 | 0.00 | 0.00 | 0.00 | 49 | 1010.0 |
| 20260905235504 | 96 | 0 | 0.0 | 0.0 | 0.00 | 0.00 | 0.00 | 49 | 1010.0 |
| 20260905235403 | 96 | 0 | 0.0 | 0.0 | 0.00 | 0.00 | 0.00 | 50 | 1010.0 |
| 20260905235306 | 96 | 0 | 0.0 | 0.0 | 0.00 | 0.00 | 0.00 | 49 | 1010.0 |
| 20260905235203 | 96 | 0 | 0.0 | 0.0 | 0.00 | 0.00 | 0.00 | 48 | 1010.1 |
| 20260905235104 | 96 | 0 | 0.0 | 0.0 | 0.00 | 0.00 | 0.00 | 49 | 1010.0 |
| 20260905235003 | 96 | 0 | 0.0 | 0.0 | 0.00 | 0.00 | 0.00 | 48 | 1010.0 |
| 20260905234903 | 96 | 0 | 0.0 | 0.0 | 0.00 | 0.00 | 0.00 | 49 | 1010.0 |
| 20260905234804 | 96 | 0 | 0.0 | 0.0 | 0.00 | 0.00 | 0.00 | 49 | 1010.0 |
| 20260905234703 | 96 | 0 | 0.0 | 0.0 | 0.00 | 0.00 | 0.00 | 49 | 1010.0 |
| 20260905234603 | 97 | 0 | 0.0 | 0.0 | 0.00 | 0.00 | 0.00 | 47 | 1010.0 |
| 20260905234504 | 97 | 314 | 0.0 | 0.9 | 0.00 | 0.00 | 0.00 | 48 | 1010.0 |
| 20260905234403 | 97 | 314 | 0.0 | 0.9 | 0.00 | 0.00 | 0.00 | 49 | 1010.0 |
| 20260905234303 | 97 | 314 | 0.0 | 0.9 | 0.00 | 0.00 | 0.00 | 48 | 1010.0 |
| 20260905234203 | 97 | 316 | 0.0 | 1.7 | 0.00 | 0.00 | 0.00 | 48 | 1009.9 |
| 20260905234103 | 97 | 316 | 0.0 | 1.7 | 0.00 | 0.00 | 0.00 | 48 | 1010.0 |
| 20260905234004 | 97 | 320 | 0.0 | 1.7 | 0.00 | 0.00 | 0.00 | 47 | 1010.0 |
| 20260905233903 | 97 | 323 | 0.0 | 1.7 | 0.00 | 0.00 | 0.00 | 47 | 1009.9 |
| 20260905233804 | 97 | 323 | 0.0 | 1.7 | 0.00 | 0.00 | 0.00 | 47 | 1009.9 |
| 20260905233704 | 97 | 323 | 0.0 | 1.7 | 0.00 | 0.00 | 0.00 | 47 | 1009.9 |
| 20260905233603 | 97 | 323 | 0.0 | 1.7 | 0.00 | 0.00 | 0.00 | 47 | 1010.0 |
| 20260905233504 | 97 | 324 | 0.0 | 1.7 | 0.00 | 0.00 | 0.00 | 47 | 1009.9 |
| 20260905233404 | 97 | 325 | 0.0 | 1.7 | 0.00 | 0.00 | 0.00 | 47 | 1009.9 |
| 20260905233303 | 98 | 327 | 0.0 | 1.7 | 0.00 | 0.00 | 0.00 | 46 | 1009.9 |
| 20260905233203 | 98 | 358 | 0.0 | 0.9 | 0.00 | 0.00 | 0.00 | 47 | 1009.9 |
| 20260905233103 | 98 | 358 | 0.0 | 0.9 | 0.00 | 0.00 | 0.00 | 47 | 1009.9 |
| 20260905233004 | 98 | 355 | 0.0 | 0.9 | 0.00 | 0.00 | 0.00 | 46 | 1009.9 |
| 20260905232903 | 98 | 0 | 0.0 | 0.0 | 0.00 | 0.00 | 0.00 | 48 | 1009.8 |
| 20260905232803 | 98 | 0 | 0.0 | 0.0 | 0.00 | 0.00 | 0.00 | 46 | 1009.9 |
| 20260905232704 | 98 | 0 | 0.0 | 0.0 | 0.00 | 0.00 | 0.00 | 46 | 1009.9 |
| 20260905232604 | 98 | 0 | 0.0 | 0.0 | 0.00 | 0.00 | 0.00 | 47 | 1009.9 |
| 20260905232503 | 98 | 0 | 0.0 | 0.0 | 0.00 | 0.00 | 0.00 | 47 | 1009.9 |
| 20260905232403 | 98 | 0 | 0.0 | 0.0 | 0.00 | 0.00 | 0.00 | 45 | 1009.9 |
| 20260905232306 | 98 | 324 | 0.0 | 2.6 | 0.00 | 0.00 | 0.00 | 45 | 1009.9 |
| 20260905232203 | 98 | 303 | 0.0 | 2.6 | 0.00 | 0.00 | 0.00 | 45 | 1009.9 |
| 20260905232103 | 98 | 301 | 0.0 | 2.6 | 0.00 | 0.00 | 0.00 | 45 | 1009.9 |
| 20260905232004 | 98 | 304 | 0.0 | 2.6 | 0.00 | 0.00 | 0.00 | 45 | 1009.8 |
| 20260905231903 | 98 | 304 | 0.0 | 2.6 | 0.00 | 0.00 | 0.00 | 45 | 1009.8 |
| 20260905231803 | 98 | 304 | 0.9 | 2.6 | 0.00 | 0.00 | 0.00 | 45 | 1009.8 |
| 20260905231703 | 98 | 304 | 0.9 | 2.6 | 0.00 | 0.00 | 0.00 | 46 | 1009.9 |
| 20260905231603 | 98 | 304 | 0.9 | 2.6 | 0.00 | 0.00 | 0.00 | 46 | 1009.9 |
| 20260905231504 | 98 | 304 | 0.9 | 2.6 | 0.00 | 0.00 | 0.00 | 47 | 1009.9 |
| 20260905231403 | 98 | 304 | 0.9 | 2.6 | 0.00 | 0.00 | 0.00 | 44 | 1009.9 |
| 20260905231304 | 98 | 298 | 0.0 | 2.6 | 0.00 | 0.00 | 0.00 | 45 | 1009.9 |
| 20260905231204 | 98 | 302 | 0.0 | 2.6 | 0.00 | 0.00 | 0.00 | 46 | 1009.8 |
| 20260905231103 | 98 | 303 | 0.0 | 2.6 | 0.00 | 0.00 | 0.00 | 45 | 1009.8 |
| 20260905231004 | 99 | 299 | 0.0 | 2.6 | 0.00 | 0.00 | 0.00 | 48 | 1009.9 |
| 20260905230903 | 99 | 298 | 0.0 | 2.6 | 0.00 | 0.00 | 0.00 | 44 | 1009.9 |
| 20260905230803 | 99 | 292 | 0.0 | 0.9 | 0.00 | 0.00 | 0.00 | 46 | 1009.9 |
| 20260905230703 | 99 | 291 | 0.0 | 0.9 | 0.00 | 0.00 | 0.00 | 47 | 1009.9 |
| 20260905230603 | 99 | 290 | 0.0 | 1.7 | 0.00 | 0.00 | 0.00 | 46 | 1009.9 |
| 20260905230504 | 99 | 289 | 0.0 | 1.7 | 0.00 | 0.00 | 0.00 | 45 | 1009.9 |
| 20260905230403 | 99 | 289 | 0.0 | 1.7 | 0.00 | 0.00 | 0.00 | 45 | 1010.0 |
| 20260905230303 | 99 | 288 | 0.0 | 1.7 | 0.00 | 0.00 | 0.00 | 45 | 1010.0 |
| 20260905230204 | 99 | 288 | 0.0 | 1.7 | 0.00 | 0.00 | 0.00 | 44 | 1010.0 |
| 20260905230103 | 99 | 287 | 0.0 | 1.7 | 0.00 | 0.00 | 0.00 | 45 | 1010.0 |
| 20260905230003 | 99 | 287 | 0.0 | 1.7 | 0.00 | 0.00 | 0.00 | 46 | 1010.0 |
| 20260905225904 | 99 | 287 | 0.0 | 1.7 | 0.00 | 0.00 | 0.00 | 46 | 1009.9 |
| 20260905225803 | 99 | 287 | 0.0 | 1.7 | 0.00 | 0.00 | 0.00 | 46 | 1009.9 |
| 20260905225703 | 99 | 287 | 0.0 | 1.7 | 0.00 | 0.00 | 0.00 | 45 | 1009.9 |
| 20260905225603 | 100 | 288 | 0.0 | 1.7 | 0.00 | 0.00 | 0.00 | 44 | 1009.9 |
| 20260905225504 | 100 | 288 | 0.0 | 1.7 | 0.00 | 0.00 | 0.00 | 44 | 1009.9 |
| 20260905225403 | 100 | 288 | 0.0 | 1.7 | 0.00 | 0.00 | 0.00 | 46 | 1009.9 |
| 20260905225305 | 100 | 288 | 0.0 | 1.7 | 0.00 | 0.00 | 0.00 | 46 | 1009.9 |
| 20260905225203 | 100 | 288 | 0.0 | 0.9 | 0.00 | 0.00 | 0.00 | 45 | 1009.9 |
| 20260905225104 | 100 | 288 | 0.0 | 0.9 | 0.00 | 0.00 | 0.00 | 45 | 1009.9 |
| 20260905225003 | 100 | 288 | 0.0 | 0.9 | 0.00 | 0.00 | 0.00 | 45 | 1009.9 |
| 20260905224904 | 100 | 288 | 0.0 | 0.9 | 0.00 | 0.00 | 0.00 | 45 | 1009.9 |
| 20260905224703 | 100 | 288 | 0.0 | 0.9 | 0.00 | 0.00 | 0.00 | 44 | 1009.9 |
| 20260905224603 | 100 | 287 | 0.0 | 1.7 | 0.00 | 0.00 | 0.00 | 43 | 1009.9 |
| 20260905224504 | 101 | 287 | 0.0 | 1.7 | 0.00 | 0.00 | 0.00 | 44 | 1009.9 |
| 20260905224403 | 101 | 287 | 0.0 | 1.7 | 0.00 | 0.00 | 0.00 | 43 | 1009.9 |
| 20260905224303 | 101 | 287 | 0.0 | 1.7 | 0.00 | 0.00 | 0.00 | 42 | 1009.9 |
| 20260905224203 | 101 | 287 | 0.0 | 1.7 | 0.00 | 0.00 | 0.00 | 44 | 1009.9 |
| 20260905224103 | 101 | 287 | 0.0 | 1.7 | 0.00 | 0.00 | 0.00 | 43 | 1009.9 |
| 20260905224004 | 101 | 287 | 0.0 | 1.7 | 0.00 | 0.00 | 0.00 | 43 | 1009.9 |
| 20260905223903 | 101 | 287 | 0.0 | 1.7 | 0.00 | 0.00 | 0.00 | 43 | 1010.0 |
| 20260905223804 | 101 | 287 | 0.0 | 1.7 | 0.00 | 0.00 | 0.00 | 43 | 1009.9 |
| 20260905223704 | 101 | 280 | 0.0 | 1.7 | 0.00 | 0.00 | 0.00 | 41 | 1009.9 |
| 20260905223603 | 102 | 274 | 0.0 | 0.9 | 0.00 | 0.00 | 0.00 | 45 | 1010.0 |
| 20260905223504 | 102 | 274 | 0.0 | 0.9 | 0.00 | 0.00 | 0.00 | 44 | 1009.9 |
| 20260905223404 | 102 | 274 | 0.0 | 0.9 | 0.00 | 0.00 | 0.00 | 43 | 1009.8 |
| 20260905223303 | 102 | 274 | 0.0 | 0.9 | 0.00 | 0.00 | 0.00 | 40 | 1009.9 |
| 20260905223203 | 102 | 274 | 0.0 | 0.9 | 0.00 | 0.00 | 0.00 | 42 | 1009.9 |
| 20260905223103 | 102 | 274 | 0.0 | 0.9 | 0.00 | 0.00 | 0.00 | 42 | 1009.8 |
| 20260905223004 | 102 | 270 | 0.0 | 0.9 | 0.00 | 0.00 | 0.00 | 42 | 1009.9 |
| 20260905222903 | 103 | 270 | 0.0 | 0.9 | 0.00 | 0.00 | 0.00 | 43 | 1009.9 |
| 20260905222803 | 103 | 270 | 0.0 | 0.9 | 0.00 | 0.00 | 0.00 | 42 | 1009.9 |
| 20260905222704 | 103 | 0 | 0.0 | 0.0 | 0.00 | 0.00 | 0.00 | 43 | 1009.9 |
| 20260905222604 | 103 | 0 | 0.0 | 0.0 | 0.00 | 0.00 | 0.00 | 41 | 1009.8 |
| 20260905222503 | 103 | 0 | 0.0 | 0.0 | 0.00 | 0.00 | 0.00 | 41 | 1009.8 |
| 20260905222404 | 104 | 0 | 0.0 | 0.0 | 0.00 | 0.00 | 0.00 | 41 | 1009.8 |
| 20260905222306 | 104 | 0 | 0.0 | 0.0 | 0.00 | 0.00 | 0.00 | 40 | 1009.8 |
| 20260905222203 | 104 | 0 | 0.0 | 0.0 | 0.00 | 0.00 | 0.00 | 40 | 1009.9 |
| 20260905222103 | 104 | 0 | 0.0 | 0.0 | 0.00 | 0.00 | 0.00 | 40 | 1009.8 |
| 20260905222004 | 104 | 0 | 0.0 | 0.0 | 0.00 | 0.00 | 0.00 | 41 | 1009.9 |
| 20260905221903 | 104 | 0 | 0.0 | 0.0 | 0.00 | 0.00 | 0.00 | 41 | 1009.9 |
| 20260905221803 | 104 | 0 | 0.0 | 0.0 | 0.00 | 0.00 | 0.00 | 41 | 1009.9 |
| 20260905221703 | 104 | 0 | 0.0 | 0.0 | 0.00 | 0.00 | 0.00 | 40 | 1009.9 |
| 20260905221603 | 104 | 270 | 0.0 | 0.9 | 0.00 | 0.00 | 0.00 | 41 | 1009.9 |
| 20260905221504 | 105 | 270 | 0.0 | 0.9 | 0.00 | 0.00 | 0.00 | 41 | 1009.9 |
| 20260905221403 | 105 | 270 | 0.0 | 0.9 | 0.00 | 0.00 | 0.00 | 40 | 1010.0 |
| 20260905221303 | 105 | 256 | 0.0 | 0.9 | 0.00 | 0.00 | 0.00 | 40 | 1009.9 |
| 20260905221204 | 105 | 256 | 0.0 | 0.9 | 0.00 | 0.00 | 0.00 | 39 | 1010.0 |
| 20260905220504 | 105 | 273 | 0.0 | 0.9 | 0.00 | 0.00 | 0.00 | 39 | 1010.1 |
| 20260905220403 | 105 | 278 | 0.0 | 0.9 | 0.00 | 0.00 | 0.00 | 38 | 1010.0 |
| 20260905214504 | 104 | 310 | 0.9 | 4.3 | 0.00 | 0.00 | 0.00 | 38 | 1009.9 |
| 20260905214303 | 104 | 301 | 0.9 | 4.3 | 0.00 | 0.00 | 0.00 | 40 | 1009.9 |
| 20260905214004 | 104 | 288 | 0.9 | 3.5 | 0.00 | 0.00 | 0.00 | 40 | 1009.9 |
| 20260905213203 | 105 | 298 | 0.0 | 2.6 | 0.00 | 0.00 | 0.00 | 39 | 1010.0 |
| 20260905213103 | 105 | 302 | 0.9 | 2.6 | 0.00 | 0.00 | 0.00 | 39 | 1010.0 |
| 20260905213004 | 105 | 298 | 0.9 | 2.6 | 0.00 | 0.00 | 0.00 | 39 | 1010.0 |
| 20260905212903 | 105 | 298 | 0.9 | 2.6 | 0.00 | 0.00 | 0.00 | 39 | 1010.0 |
| 20260905212803 | 105 | 299 | 0.9 | 2.6 | 0.00 | 0.00 | 0.00 | 38 | 1009.9 |
| 20260905212703 | 105 | 301 | 0.9 | 2.6 | 0.00 | 0.00 | 0.00 | 39 | 1010.0 |
| 20260905212604 | 104 | 307 | 0.9 | 2.6 | 0.00 | 0.00 | 0.00 | 40 | 1010.0 |
| 20260905212504 | 105 | 311 | 0.9 | 2.6 | 0.00 | 0.00 | 0.00 | 39 | 1010.0 |
| 20260905212403 | 105 | 313 | 0.9 | 2.6 | 0.00 | 0.00 | 0.00 | 38 | 1010.0 |
| 20260905212306 | 105 | 319 | 0.9 | 2.6 | 0.00 | 0.00 | 0.00 | 38 | 1010.0 |
| 20260905212204 | 105 | 321 | 0.9 | 2.6 | 0.00 | 0.00 | 0.00 | 38 | 1010.0 |
| 20260905212103 | 105 | 324 | 0.9 | 2.6 | 0.00 | 0.00 | 0.00 | 39 | 1010.0 |
| 20260905212004 | 105 | 326 | 0.9 | 2.6 | 0.00 | 0.00 | 0.00 | 39 | 1010.0 |
| 20260905211903 | 105 | 328 | 0.9 | 2.6 | 0.00 | 0.00 | 0.00 | 41 | 1010.0 |
| 20260905211803 | 105 | 319 | 0.9 | 2.6 | 0.00 | 0.00 | 0.00 | 40 | 1010.0 |
| 20260905211704 | 105 | 318 | 0.9 | 3.5 | 0.00 | 0.00 | 0.00 | 40 | 1010.1 |
| 20260905211603 | 105 | 313 | 0.9 | 3.5 | 0.00 | 0.00 | 0.00 | 39 | 1010.1 |
| 20260905211503 | 105 | 308 | 0.9 | 3.5 | 0.00 | 0.00 | 0.00 | 41 | 1010.1 |
| 20260905211404 | 104 | 307 | 0.0 | 3.5 | 0.00 | 0.00 | 0.00 | 40 | 1010.1 |
| 20260905211303 | 104 | 306 | 0.0 | 3.5 | 0.00 | 0.00 | 0.00 | 40 | 1010.1 |
| 20260905211203 | 104 | 293 | 0.0 | 3.5 | 0.00 | 0.00 | 0.00 | 42 | 1010.1 |
| 20260905211104 | 104 | 303 | 0.0 | 3.5 | 0.00 | 0.00 | 0.00 | 41 | 1010.1 |
| 20260905211003 | 104 | 312 | 0.0 | 3.5 | 0.00 | 0.00 | 0.00 | 40 | 1010.1 |
| 20260905210904 | 104 | 313 | 0.0 | 3.5 | 0.00 | 0.00 | 0.00 | 40 | 1010.2 |
| 20260905210803 | 104 | 322 | 0.0 | 3.5 | 0.00 | 0.00 | 0.00 | 41 | 1010.2 |
| 20260905210703 | 104 | 308 | 0.0 | 2.6 | 0.00 | 0.00 | 0.00 | 40 | 1010.2 |
| 20260905210603 | 103 | 297 | 0.9 | 2.6 | 0.00 | 0.00 | 0.00 | 42 | 1010.2 |
| 20260905210504 | 103 | 306 | 0.9 | 2.6 | 0.00 | 0.00 | 0.00 | 42 | 1010.2 |
| 20260905210403 | 103 | 307 | 0.9 | 2.6 | 0.00 | 0.00 | 0.00 | 42 | 1010.2 |
| 20260905210303 | 103 | 307 | 0.9 | 2.6 | 0.00 | 0.00 | 0.00 | 40 | 1010.2 |
| 20260905210204 | 103 | 307 | 0.9 | 2.6 | 0.00 | 0.00 | 0.00 | 41 | 1010.2 |
| 20260905210104 | 103 | 303 | 0.9 | 2.6 | 0.00 | 0.00 | 0.00 | 42 | 1010.2 |
| 20260905210003 | 102 | 300 | 0.9 | 2.6 | 0.00 | 0.00 | 0.00 | 42 | 1010.2 |
| 20260905205904 | 102 | 299 | 0.9 | 2.6 | 0.00 | 0.00 | 0.00 | 42 | 1010.2 |
| 20260905205803 | 102 | 298 | 0.9 | 2.6 | 0.00 | 0.00 | 0.00 | 42 | 1010.2 |
| 20260905205703 | 102 | 306 | 0.9 | 2.6 | 0.00 | 0.00 | 0.00 | 42 | 1010.2 |
| 20260905205603 | 102 | 314 | 0.9 | 2.6 | 0.00 | 0.00 | 0.00 | 41 | 1010.2 |
| 20260905205504 | 102 | 306 | 0.0 | 2.6 | 0.00 | 0.00 | 0.00 | 44 | 1010.2 |
| 20260905201903 | 102 | 263 | 0.0 | 1.7 | 0.00 | 0.01 | 0.00 | 42 | 1011.0 |
| 20260905201703 | 102 | 254 | 0.0 | 1.7 | 0.00 | 0.01 | 0.00 | 42 | 1011.0 |
| 20260905201603 | 102 | 254 | 0.0 | 1.7 | 0.00 | 0.01 | 0.00 | 41 | 1011.0 |
| 20260905201504 | 102 | 252 | 0.0 | 1.7 | 0.00 | 0.01 | 0.00 | 42 | 1011.0 |
| 20260905201403 | 102 | 248 | 0.0 | 1.7 | 0.00 | 0.01 | 0.00 | 41 | 1011.0 |
| 20260905201304 | 101 | 246 | 0.0 | 1.7 | 0.00 | 0.01 | 0.00 | 43 | 1011.0 |
| 20260905201204 | 101 | 239 | 0.0 | 1.7 | 0.00 | 0.01 | 0.00 | 43 | 1011.0 |
| 20260905201103 | 101 | 237 | 0.0 | 1.7 | 0.00 | 0.01 | 0.00 | 43 | 1011.0 |
| 20260905201004 | 101 | 235 | 0.0 | 1.7 | 0.00 | 0.01 | 0.00 | 44 | 1011.0 |
| 20260905200904 | 101 | 233 | 0.0 | 1.7 | 0.00 | 0.01 | 0.00 | 43 | 1011.1 |
| 20260905200803 | 101 | 231 | 0.0 | 2.6 | 0.00 | 0.01 | 0.00 | 43 | 1011.1 |
| 20260905200703 | 101 | 230 | 0.9 | 2.6 | 0.00 | 0.01 | 0.00 | 43 | 1011.1 |
| 20260905200603 | 101 | 230 | 0.9 | 2.6 | 0.00 | 0.01 | 0.00 | 44 | 1011.1 |
| 20260905200504 | 102 | 231 | 0.9 | 2.6 | 0.00 | 0.01 | 0.00 | 44 | 1011.1 |
| 20260905200403 | 102 | 231 | 0.9 | 2.6 | 0.00 | 0.01 | 0.00 | 43 | 1011.1 |
| 20260905200303 | 102 | 232 | 0.9 | 2.6 | 0.00 | 0.01 | 0.00 | 43 | 1011.1 |
| 20260905200204 | 102 | 233 | 0.9 | 2.6 | 0.00 | 0.01 | 0.00 | 43 | 1011.1 |
| 20260905200104 | 102 | 236 | 0.9 | 2.6 | 0.00 | 0.01 | 0.00 | 43 | 1011.1 |
| 20260905200003 | 103 | 237 | 0.9 | 2.6 | 0.00 | 0.01 | 0.00 | 43 | 1011.1 |
| 20260905195904 | 103 | 236 | 0.9 | 2.6 | 0.00 | 0.01 | 0.00 | 42 | 1011.2 |
| 20260905195803 | 103 | 232 | 0.9 | 2.6 | 0.00 | 0.01 | 0.00 | 40 | 1011.1 |
| 20260905195703 | 104 | 227 | 0.9 | 2.6 | 0.00 | 0.01 | 0.00 | 40 | 1011.2 |
| 20260905195603 | 104 | 230 | 0.9 | 2.6 | 0.00 | 0.01 | 0.00 | 40 | 1011.2 |
| 20260905195504 | 104 | 229 | 0.9 | 2.6 | 0.00 | 0.01 | 0.00 | 39 | 1011.3 |
| 20260905195403 | 104 | 227 | 0.9 | 2.6 | 0.00 | 0.01 | 0.00 | 40 | 1011.3 |
| 20260905195306 | 104 | 218 | 0.9 | 4.3 | 0.00 | 0.01 | 0.00 | 39 | 1011.3 |
| 20260905195203 | 104 | 217 | 0.9 | 4.3 | 0.00 | 0.01 | 0.00 | 39 | 1011.3 |
| 20260905195104 | 104 | 214 | 0.9 | 4.3 | 0.00 | 0.02 | 0.00 | 39 | 1011.3 |
| 20260905195004 | 104 | 213 | 0.9 | 4.3 | 0.00 | 0.02 | 0.00 | 39 | 1011.3 |
| 20260905194903 | 104 | 216 | 0.9 | 4.3 | 0.00 | 0.02 | 0.00 | 39 | 1011.3 |
| 20260905194804 | 104 | 218 | 0.9 | 4.3 | 0.00 | 0.02 | 0.00 | 39 | 1011.3 |
| 20260905194703 | 104 | 227 | 0.9 | 4.3 | 0.00 | 0.02 | 0.00 | 40 | 1011.3 |
| 20260905194504 | 104 | 225 | 0.9 | 4.3 | 0.00 | 0.02 | 0.00 | 39 | 1011.4 |
| 20260905194103 | 103 | 239 | 0.9 | 3.5 | 0.00 | 0.04 | 0.00 | 40 | 1011.5 |
| 20260905193804 | 103 | 230 | 0.9 | 3.5 | 0.00 | 0.04 | 0.00 | 40 | 1011.4 |
| 20260905193603 | 103 | 222 | 0.9 | 3.5 | 0.00 | 0.04 | 0.00 | 40 | 1011.4 |
| 20260905193303 | 103 | 223 | 0.9 | 3.5 | 0.00 | 0.04 | 0.00 | 40 | 1011.5 |
| 20260905192803 | 103 | 233 | 0.9 | 3.5 | 0.00 | 0.04 | 0.00 | 40 | 1011.6 |
| 20260905192604 | 103 | 241 | 0.9 | 2.6 | 0.00 | 0.04 | 0.00 | 40 | 1011.6 |
| 20260905190703 | 101 | 241 | 0.0 | 2.6 | 0.00 | 0.04 | 0.00 | 41 | 1012.1 |
| 20260905190603 | 101 | 237 | 0.0 | 2.6 | 0.00 | 0.04 | 0.00 | 42 | 1012.0 |
| 20260905190504 | 101 | 232 | 0.9 | 2.6 | 0.00 | 0.04 | 0.00 | 42 | 1012.0 |
| 20260905190403 | 101 | 224 | 0.9 | 3.5 | 0.00 | 0.04 | 0.00 | 41 | 1012.0 |
| 20260905190303 | 101 | 223 | 0.9 | 3.5 | 0.00 | 0.04 | 0.00 | 41 | 1012.0 |
| 20260905190204 | 101 | 222 | 0.9 | 3.5 | 0.00 | 0.04 | 0.00 | 42 | 1012.0 |
| 20260905190103 | 101 | 216 | 0.9 | 3.5 | 0.00 | 0.04 | 0.00 | 41 | 1012.0 |
| 20260905190003 | 101 | 217 | 0.9 | 3.5 | 0.00 | 0.04 | 0.00 | 42 | 1012.1 |
| 20260905185904 | 101 | 217 | 0.9 | 3.5 | 0.00 | 0.04 | 0.00 | 41 | 1012.1 |
| 20260905185803 | 101 | 218 | 0.9 | 3.5 | 0.00 | 0.04 | 0.00 | 41 | 1012.1 |
| 20260905185703 | 101 | 219 | 0.9 | 3.5 | 0.00 | 0.04 | 0.00 | 41 | 1012.1 |
| 20260905185603 | 101 | 221 | 0.9 | 3.5 | 0.00 | 0.04 | 0.00 | 41 | 1012.1 |
| 20260905185504 | 101 | 220 | 0.9 | 3.5 | 0.00 | 0.04 | 0.00 | 41 | 1012.1 |
| 20260905185403 | 101 | 224 | 0.9 | 3.5 | 0.00 | 0.04 | 0.00 | 41 | 1012.1 |
| 20260905185305 | 101 | 224 | 0.9 | 3.5 | 0.00 | 0.04 | 0.00 | 41 | 1012.1 |
| 20260905185203 | 101 | 225 | 0.9 | 3.5 | 0.00 | 0.04 | 0.00 | 42 | 1012.1 |
| 20260905185104 | 100 | 229 | 0.9 | 2.6 | 0.00 | 0.04 | 0.00 | 41 | 1012.1 |
| 20260905185003 | 100 | 231 | 0.9 | 2.6 | 0.00 | 0.04 | 0.00 | 42 | 1012.1 |
| 20260905184904 | 100 | 232 | 0.9 | 2.6 | 0.00 | 0.04 | 0.00 | 42 | 1012.2 |
| 20260905184803 | 100 | 236 | 0.9 | 2.6 | 0.00 | 0.04 | 0.00 | 41 | 1012.2 |
| 20260905184703 | 100 | 237 | 0.9 | 2.6 | 0.00 | 0.04 | 0.00 | 41 | 1012.2 |
| 20260905184603 | 100 | 237 | 0.9 | 2.6 | 0.00 | 0.04 | 0.00 | 41 | 1012.2 |
| 20260905184504 | 101 | 237 | 0.9 | 2.6 | 0.00 | 0.04 | 0.00 | 41 | 1012.2 |
| 20260905184403 | 101 | 240 | 0.9 | 2.6 | 0.00 | 0.04 | 0.00 | 40 | 1012.2 |
| 20260905184303 | 101 | 239 | 0.9 | 3.5 | 0.00 | 0.04 | 0.00 | 40 | 1012.3 |
| 20260905184203 | 101 | 238 | 0.9 | 3.5 | 0.00 | 0.04 | 0.00 | 40 | 1012.3 |
| 20260905184104 | 101 | 239 | 0.9 | 3.5 | 0.00 | 0.04 | 0.00 | 40 | 1012.3 |
| 20260905184004 | 101 | 238 | 0.9 | 3.5 | 0.00 | 0.04 | 0.00 | 41 | 1012.3 |
| 20260905183903 | 101 | 237 | 0.9 | 3.5 | 0.00 | 0.04 | 0.00 | 40 | 1012.3 |
| 20260905183804 | 101 | 237 | 0.9 | 3.5 | 0.00 | 0.04 | 0.00 | 40 | 1012.3 |
| 20260905183703 | 101 | 236 | 0.9 | 3.5 | 0.00 | 0.04 | 0.00 | 41 | 1012.4 |
| 20260905183603 | 101 | 236 | 0.9 | 3.5 | 0.00 | 0.04 | 0.00 | 40 | 1012.4 |
| 20260905183504 | 101 | 233 | 0.9 | 3.5 | 0.00 | 0.04 | 0.00 | 42 | 1012.3 |
| 20260905183403 | 101 | 226 | 0.9 | 3.5 | 0.00 | 0.04 | 0.00 | 40 | 1012.3 |
| 20260905183303 | 101 | 225 | 0.9 | 2.6 | 0.00 | 0.04 | 0.00 | 41 | 1012.3 |
| 20260905183204 | 100 | 225 | 0.9 | 2.6 | 0.00 | 0.04 | 0.00 | 42 | 1012.4 |
| 20260905183103 | 100 | 224 | 0.9 | 2.6 | 0.00 | 0.04 | 0.00 | 42 | 1012.4 |
| 20260905183004 | 100 | 221 | 0.0 | 2.6 | 0.00 | 0.04 | 0.00 | 40 | 1012.4 |
| 20260905182904 | 100 | 220 | 0.0 | 2.6 | 0.00 | 0.04 | 0.00 | 41 | 1012.4 |
| 20260905182703 | 100 | 223 | 0.9 | 2.6 | 0.00 | 0.04 | 0.00 | 40 | 1012.5 |
| 20260905175903 | 99 | 261 | 0.9 | 2.6 | 0.00 | 0.04 | 0.00 | 46 | 1012.6 |
| 20260905175804 | 99 | 250 | 0.9 | 2.6 | 0.00 | 0.04 | 0.00 | 46 | 1012.6 |
| 20260905175504 | 99 | 242 | 0.9 | 2.6 | 0.00 | 0.04 | 0.00 | 43 | 1012.6 |
| 20260905175404 | 99 | 238 | 0.9 | 3.5 | 0.00 | 0.04 | 0.00 | 44 | 1012.6 |
| 20260905175306 | 99 | 223 | 0.9 | 4.3 | 0.00 | 0.04 | 0.00 | 44 | 1012.7 |
| 20260905175203 | 99 | 220 | 0.9 | 4.3 | 0.00 | 0.04 | 0.00 | 44 | 1012.7 |
| 20260905175104 | 98 | 219 | 0.9 | 4.3 | 0.00 | 0.04 | 0.00 | 44 | 1012.7 |
| 20260905175003 | 98 | 218 | 0.9 | 4.3 | 0.00 | 0.04 | 0.00 | 44 | 1012.7 |
| 20260905174904 | 98 | 217 | 0.9 | 4.3 | 0.00 | 0.04 | 0.00 | 44 | 1012.7 |
| 20260905174803 | 98 | 216 | 0.9 | 4.3 | 0.00 | 0.04 | 0.00 | 44 | 1012.7 |
| 20260905174703 | 98 | 212 | 0.9 | 4.3 | 0.00 | 0.04 | 0.00 | 44 | 1012.8 |
| 20260905174603 | 98 | 212 | 0.9 | 4.3 | 0.00 | 0.04 | 0.00 | 46 | 1012.7 |
| 20260905174504 | 98 | 212 | 0.9 | 4.3 | 0.00 | 0.04 | 0.00 | 45 | 1012.8 |
| 20260905174403 | 98 | 214 | 0.9 | 4.3 | 0.00 | 0.04 | 0.00 | 45 | 1012.8 |
| 20260905174303 | 98 | 225 | 0.9 | 3.5 | 0.00 | 0.04 | 0.00 | 46 | 1012.8 |
| 20260905174204 | 98 | 227 | 0.9 | 3.5 | 0.00 | 0.04 | 0.00 | 46 | 1012.7 |
| 20260905174103 | 98 | 227 | 0.9 | 3.5 | 0.00 | 0.04 | 0.00 | 46 | 1012.7 |
| 20260905174004 | 98 | 225 | 0.9 | 3.5 | 0.00 | 0.04 | 0.00 | 46 | 1012.7 |
| 20260905173904 | 98 | 225 | 0.9 | 3.5 | 0.00 | 0.04 | 0.00 | 46 | 1012.8 |
| 20260905173803 | 98 | 226 | 0.9 | 3.5 | 0.00 | 0.04 | 0.00 | 45 | 1012.8 |
| 20260905173703 | 98 | 231 | 0.9 | 2.6 | 0.00 | 0.04 | 0.00 | 45 | 1012.8 |
| 20260905173603 | 98 | 235 | 0.9 | 3.5 | 0.00 | 0.04 | 0.00 | 45 | 1012.8 |
| 20260905173504 | 98 | 253 | 0.9 | 3.5 | 0.00 | 0.04 | 0.00 | 45 | 1012.8 |
| 20260905173403 | 98 | 267 | 0.9 | 3.5 | 0.00 | 0.04 | 0.00 | 45 | 1012.9 |
| 20260905173303 | 98 | 272 | 0.9 | 3.5 | 0.00 | 0.04 | 0.00 | 45 | 1012.9 |
| 20260905173203 | 98 | 275 | 0.9 | 3.5 | 0.00 | 0.04 | 0.00 | 45 | 1012.9 |
| 20260905173104 | 98 | 273 | 0.9 | 3.5 | 0.00 | 0.04 | 0.00 | 46 | 1012.9 |
| 20260905173004 | 98 | 281 | 0.9 | 3.5 | 0.00 | 0.04 | 0.00 | 47 | 1013.0 |
| 20260905172904 | 98 | 267 | 0.9 | 5.2 | 0.00 | 0.04 | 0.00 | 46 | 1012.9 |
| 20260905172803 | 98 | 270 | 0.9 | 5.2 | 0.00 | 0.04 | 0.00 | 47 | 1012.9 |
| 20260905172703 | 98 | 269 | 0.9 | 5.2 | 0.00 | 0.04 | 0.00 | 47 | 1012.9 |
| 20260905172603 | 98 | 260 | 0.9 | 5.2 | 0.00 | 0.04 | 0.00 | 48 | 1012.9 |
| 20260905172504 | 98 | 248 | 0.9 | 5.2 | 0.00 | 0.04 | 0.00 | 48 | 1012.9 |
| 20260905172403 | 97 | 242 | 0.9 | 5.2 | 0.00 | 0.04 | 0.00 | 48 | 1012.9 |
| 20260905172305 | 97 | 242 | 0.9 | 5.2 | 0.00 | 0.04 | 0.00 | 48 | 1012.9 |
| 20260905172204 | 97 | 241 | 0.9 | 5.2 | 0.00 | 0.04 | 0.00 | 47 | 1012.9 |
| 20260905172104 | 97 | 240 | 0.9 | 5.2 | 0.00 | 0.04 | 0.00 | 50 | 1013.0 |
| 20260905172003 | 97 | 238 | 0.9 | 5.2 | 0.00 | 0.04 | 0.00 | 49 | 1013.0 |
| 20260905171904 | 97 | 238 | 0.9 | 3.5 | 0.00 | 0.04 | 0.00 | 49 | 1012.9 |
| 20260905171703 | 97 | 237 | 0.9 | 3.5 | 0.00 | 0.04 | 0.00 | 50 | 1013.0 |
| 20260905164804 | 96 | 243 | 0.9 | 3.5 | 0.00 | 0.04 | 0.00 | 53 | 1013.4 |
| 20260905164603 | 96 | 242 | 0.9 | 3.5 | 0.00 | 0.04 | 0.00 | 53 | 1013.4 |
| 20260905164504 | 96 | 245 | 0.9 | 3.5 | 0.00 | 0.04 | 0.00 | 52 | 1013.4 |
| 20260905164404 | 96 | 248 | 0.9 | 3.5 | 0.00 | 0.04 | 0.00 | 52 | 1013.5 |
| 20260905164303 | 96 | 240 | 0.9 | 3.5 | 0.00 | 0.04 | 0.00 | 53 | 1013.5 |
| 20260905164203 | 96 | 240 | 0.9 | 3.5 | 0.00 | 0.04 | 0.00 | 54 | 1013.5 |
| 20260905164103 | 96 | 238 | 0.9 | 3.5 | 0.00 | 0.04 | 0.00 | 53 | 1013.5 |
| 20260905164004 | 96 | 237 | 0.9 | 3.5 | 0.00 | 0.04 | 0.00 | 52 | 1013.6 |
| 20260905163903 | 96 | 237 | 0.9 | 3.5 | 0.00 | 0.04 | 0.00 | 52 | 1013.6 |
| 20260905163804 | 96 | 237 | 0.9 | 3.5 | 0.00 | 0.04 | 0.00 | 52 | 1013.6 |
| 20260905163704 | 96 | 235 | 0.9 | 3.5 | 0.00 | 0.04 | 0.00 | 51 | 1013.6 |
| 20260905163603 | 96 | 235 | 0.9 | 3.5 | 0.00 | 0.04 | 0.00 | 53 | 1013.6 |
| 20260905163504 | 96 | 233 | 0.9 | 3.5 | 0.00 | 0.04 | 0.00 | 52 | 1013.6 |
| 20260905163404 | 96 | 235 | 0.9 | 3.5 | 0.00 | 0.04 | 0.00 | 51 | 1013.7 |
| 20260905163303 | 96 | 243 | 0.9 | 3.5 | 0.00 | 0.04 | 0.00 | 52 | 1013.6 |
| 20260905163203 | 96 | 249 | 0.9 | 3.5 | 0.00 | 0.04 | 0.00 | 52 | 1013.6 |
| 20260905163103 | 96 | 246 | 0.9 | 3.5 | 0.00 | 0.04 | 0.00 | 51 | 1013.7 |
| 20260905163004 | 96 | 245 | 0.9 | 3.5 | 0.00 | 0.04 | 0.00 | 51 | 1013.7 |
| 20260905162903 | 96 | 241 | 0.9 | 3.5 | 0.00 | 0.04 | 0.00 | 53 | 1013.6 |
| 20260905162803 | 96 | 241 | 0.9 | 3.5 | 0.00 | 0.04 | 0.00 | 52 | 1013.7 |
| 20260905162704 | 96 | 243 | 0.9 | 2.6 | 0.00 | 0.04 | 0.00 | 51 | 1013.7 |
| 20260905162603 | 96 | 236 | 0.9 | 3.5 | 0.00 | 0.04 | 0.00 | 52 | 1013.7 |
| 20260905162503 | 96 | 226 | 0.9 | 3.5 | 0.00 | 0.04 | 0.00 | 52 | 1013.7 |
| 20260905162404 | 96 | 222 | 0.9 | 3.5 | 0.00 | 0.04 | 0.00 | 52 | 1013.7 |
| 20260905162306 | 96 | 221 | 0.9 | 3.5 | 0.00 | 0.04 | 0.00 | 52 | 1013.7 |
| 20260905162203 | 96 | 218 | 0.9 | 3.5 | 0.00 | 0.04 | 0.00 | 53 | 1013.8 |
| 20260905162103 | 95 | 219 | 0.9 | 3.5 | 0.00 | 0.04 | 0.00 | 53 | 1013.7 |
| 20260905162004 | 95 | 221 | 0.9 | 3.5 | 0.00 | 0.04 | 0.00 | 53 | 1013.7 |
| 20260905161903 | 95 | 223 | 0.9 | 3.5 | 0.00 | 0.04 | 0.00 | 52 | 1013.7 |
| 20260905161803 | 95 | 230 | 0.9 | 3.5 | 0.00 | 0.04 | 0.00 | 53 | 1013.7 |
| 20260905161704 | 95 | 230 | 0.9 | 3.5 | 0.00 | 0.04 | 0.00 | 52 | 1013.7 |
| 20260905161503 | 95 | 259 | 0.0 | 2.6 | 0.00 | 0.04 | 0.00 | 54 | 1013.8 |
| 20260905161404 | 95 | 263 | 0.0 | 2.6 | 0.00 | 0.04 | 0.00 | 53 | 1013.7 |
| 20260905161303 | 95 | 277 | 0.9 | 2.6 | 0.00 | 0.04 | 0.00 | 53 | 1013.7 |
| 20260905161203 | 95 | 276 | 0.9 | 2.6 | 0.00 | 0.04 | 0.00 | 52 | 1013.8 |
| 20260905161103 | 95 | 273 | 0.9 | 2.6 | 0.00 | 0.04 | 0.00 | 52 | 1013.8 |
| 20260905161004 | 95 | 270 | 0.9 | 2.6 | 0.00 | 0.04 | 0.00 | 51 | 1013.7 |
| 20260905160903 | 95 | 265 | 0.9 | 2.6 | 0.00 | 0.04 | 0.00 | 54 | 1013.8 |
| 20260905160803 | 95 | 272 | 0.0 | 1.7 | 0.00 | 0.04 | 0.00 | 54 | 1013.8 |
| 20260905160703 | 94 | 273 | 0.0 | 1.7 | 0.00 | 0.04 | 0.00 | 55 | 1013.8 |
| 20260905160604 | 94 | 266 | 0.0 | 1.7 | 0.00 | 0.04 | 0.00 | 55 | 1013.8 |
| 20260905160503 | 94 | 260 | 0.9 | 1.7 | 0.00 | 0.04 | 0.00 | 55 | 1013.7 |
| 20260905160403 | 94 | 256 | 0.9 | 1.7 | 0.00 | 0.04 | 0.00 | 53 | 1013.8 |
| 20260905160304 | 94 | 246 | 0.9 | 1.7 | 0.00 | 0.04 | 0.00 | 53 | 1013.8 |
| 20260905160203 | 94 | 246 | 0.9 | 1.7 | 0.00 | 0.04 | 0.00 | 53 | 1013.8 |
| 20260905160004 | 94 | 245 | 0.0 | 1.7 | 0.00 | 0.04 | 0.00 | 54 | 1013.8 |
| 20260905155903 | 94 | 246 | 0.0 | 1.7 | 0.00 | 0.04 | 0.00 | 56 | 1013.8 |
| 20260905155803 | 94 | 245 | 0.0 | 1.7 | 0.00 | 0.04 | 0.00 | 57 | 1013.8 |
| 20260905155703 | 94 | 241 | 0.0 | 3.5 | 0.00 | 0.04 | 0.00 | 56 | 1013.8 |
| 20260905155604 | 94 | 242 | 0.9 | 3.5 | 0.00 | 0.04 | 0.00 | 56 | 1013.8 |
| 20260905155503 | 94 | 242 | 0.0 | 3.5 | 0.00 | 0.04 | 0.00 | 55 | 1013.8 |
| 20260905155403 | 94 | 238 | 0.9 | 3.5 | 0.00 | 0.04 | 0.00 | 56 | 1013.8 |
| 20260905155306 | 94 | 240 | 0.9 | 3.5 | 0.00 | 0.04 | 0.00 | 57 | 1013.8 |
| 20260905155203 | 94 | 240 | 0.9 | 3.5 | 0.00 | 0.04 | 0.00 | 57 | 1013.8 |
| 20260905155103 | 93 | 240 | 0.9 | 3.5 | 0.00 | 0.04 | 0.00 | 57 | 1013.8 |
| 20260905155004 | 93 | 239 | 0.9 | 3.5 | 0.00 | 0.04 | 0.00 | 56 | 1013.8 |
| 20260905154903 | 93 | 238 | 0.9 | 3.5 | 0.00 | 0.04 | 0.00 | 57 | 1013.8 |
| 20260905154803 | 93 | 235 | 0.9 | 3.5 | 0.00 | 0.04 | 0.00 | 56 | 1013.7 |
| 20260905154703 | 93 | 246 | 0.9 | 3.5 | 0.00 | 0.04 | 0.00 | 61 | 1013.8 |
| 20260905154604 | 93 | 250 | 0.9 | 3.5 | 0.00 | 0.04 | 0.00 | 61 | 1013.8 |
| 20260905154503 | 93 | 251 | 0.9 | 3.5 | 0.00 | 0.04 | 0.00 | 57 | 1013.7 |
| 20260905154403 | 93 | 258 | 0.9 | 3.5 | 0.00 | 0.04 | 0.00 | 58 | 1013.8 |
| 20260905154304 | 93 | 278 | 0.9 | 3.5 | 0.00 | 0.04 | 0.00 | 57 | 1013.8 |
| 20260905154203 | 93 | 285 | 0.9 | 3.5 | 0.00 | 0.04 | 0.00 | 58 | 1013.7 |
| 20260905154103 | 93 | 307 | 0.9 | 3.5 | 0.00 | 0.04 | 0.00 | 58 | 1013.8 |
| 20260905154004 | 93 | 332 | 0.9 | 3.5 | 0.00 | 0.04 | 0.00 | 57 | 1013.7 |
| 20260905153903 | 93 | 350 | 0.9 | 3.5 | 0.00 | 0.04 | 0.00 | 57 | 1013.8 |
| 20260905153803 | 93 | 348 | 0.9 | 2.6 | 0.00 | 0.04 | 0.00 | 57 | 1013.7 |
| 20260905153703 | 93 | 358 | 0.0 | 1.7 | 0.00 | 0.04 | 0.00 | 56 | 1013.7 |
| 20260905153604 | 92 | 353 | 0.0 | 1.7 | 0.00 | 0.04 | 0.00 | 57 | 1013.7 |
| 20260905153403 | 92 | 278 | 0.9 | 1.7 | 0.00 | 0.04 | 0.00 | 58 | 1013.7 |
| 20260905153304 | 92 | 223 | 0.9 | 4.3 | 0.00 | 0.04 | 0.00 | 58 | 1013.8 |
| 20260905153204 | 92 | 226 | 0.9 | 4.3 | 0.00 | 0.04 | 0.00 | 57 | 1013.8 |
| 20260905153103 | 92 | 222 | 0.9 | 4.3 | 0.00 | 0.04 | 0.00 | 59 | 1013.8 |
| 20260905153004 | 92 | 225 | 0.9 | 4.3 | 0.00 | 0.04 | 0.00 | 60 | 1013.8 |
| 20260905152903 | 92 | 223 | 0.9 | 4.3 | 0.00 | 0.04 | 0.00 | 59 | 1013.8 |
| 20260905152803 | 92 | 223 | 0.9 | 4.3 | 0.00 | 0.04 | 0.00 | 64 | 1013.9 |
| 20260905152703 | 92 | 219 | 0.9 | 4.3 | 0.00 | 0.04 | 0.00 | 60 | 1013.8 |
| 20260905152604 | 92 | 220 | 0.9 | 4.3 | 0.00 | 0.04 | 0.00 | 60 | 1013.9 |
| 20260905152504 | 92 | 221 | 0.9 | 4.3 | 0.00 | 0.04 | 0.00 | 59 | 1013.8 |
| 20260905152404 | 92 | 131 | 0.9 | 4.3 | 0.00 | 0.04 | 0.00 | 59 | 1013.9 |
| 20260905152306 | 92 | 60 | 0.9 | 4.3 | 0.00 | 0.04 | 0.00 | 60 | 1013.9 |
| 20260905152203 | 92 | 67 | 0.9 | 4.3 | 0.00 | 0.04 | 0.00 | 61 | 1013.9 |
| 20260905152103 | 92 | 62 | 0.9 | 4.3 | 0.00 | 0.04 | 0.00 | 62 | 1013.9 |
| 20260905152004 | 91 | 69 | 0.9 | 4.3 | 0.00 | 0.04 | 0.00 | 60 | 1013.9 |
| 20260905151904 | 91 | 56 | 0.9 | 4.3 | 0.00 | 0.04 | 0.00 | 61 | 1013.9 |
| 20260905151803 | 91 | 58 | 0.9 | 4.3 | 0.00 | 0.04 | 0.00 | 61 | 1013.9 |
| 20260905151703 | 91 | 21 | 0.9 | 4.3 | 0.00 | 0.04 | 0.00 | 61 | 1013.9 |
| 20260905151603 | 91 | 226 | 0.9 | 4.3 | 0.00 | 0.04 | 0.00 | 62 | 1013.9 |
| 20260905151403 | 91 | 229 | 0.9 | 4.3 | 0.00 | 0.04 | 0.00 | 62 | 1013.9 |
| 20260905151304 | 91 | 245 | 0.0 | 2.6 | 0.00 | 0.04 | 0.00 | 62 | 1013.9 |
| 20260905151203 | 91 | 244 | 0.0 | 2.6 | 0.00 | 0.04 | 0.00 | 63 | 1013.9 |
| 20260905151104 | 91 | 244 | 0.0 | 2.6 | 0.00 | 0.04 | 0.00 | 62 | 1013.9 |
| 20260905151004 | 90 | 245 | 0.0 | 2.6 | 0.00 | 0.04 | 0.00 | 62 | 1013.9 |
| 20260905150903 | 90 | 245 | 0.0 | 2.6 | 0.00 | 0.04 | 0.00 | 62 | 1013.9 |
| 20260905150804 | 90 | 245 | 0.9 | 2.6 | 0.00 | 0.04 | 0.00 | 62 | 1013.8 |